Observation data for Caprock Canyons on 11/11/2019      Previous  Date       Current Mesonet Observations  Soil Data  Daily Summary Page  Observations in Plain Language
KQU1 110600Z 28009KT 13/01 A2985 RMK A01 T01300008  RH  043%=      5-min Rain = 0
KQU1 110601Z 28009KT 13/01 A2985 RMK A01 T01300008  RH  043%=      5-min Rain = 0
KQU1 110602Z 29010KT 13/01 A2985 RMK A01 T01300008  RH  043%=      5-min Rain = 0
KQU1 110603Z 29009KT 13/01 A2985 RMK A01 T01300008  RH  043%=      5-min Rain = 0
KQU1 110604Z 29010KT 13/01 A2984 RMK A01 T01310007  RH  043%=      5-min Rain = 0
KQU1 110605Z 29011KT 13/01 A2984 RMK A01 T01320007  RH  042%=      5-min Rain = 0
KQU1 110606Z 29010KT 13/01 A2984 RMK A01 T01320007  RH  042%=      5-min Rain = 0
KQU1 110607Z 29010KT 13/01 A2984 RMK A01 T01330007  RH  042%=      5-min Rain = 0
KQU1 110608Z 29010KT 13/01 A2984 RMK A01 T01330007  RH  042%=      5-min Rain = 0
KQU1 110609Z 29010KT 13/01 A2984 RMK A01 T01320007  RH  042%=      5-min Rain = 0
KQU1 110610Z 29010KT 13/01 A2984 RMK A01 T01320007  RH  042%=      5-min Rain = 0
KQU1 110611Z 29010KT 13/01 A2984 RMK A01 T01320007  RH  042%=      5-min Rain = 0
KQU1 110612Z 29010KT 13/01 A2984 RMK A01 T01320007  RH  043%=      5-min Rain = 0
KQU1 110613Z 29009KT 13/01 A2984 RMK A01 T01320008  RH  043%=      5-min Rain = 0
KQU1 110614Z 29010KT 13/01 A2984 RMK A01 T01310008  RH  043%=      5-min Rain = 0
KQU1 110615Z 29010KT 13/01 A2984 RMK A01 T01310008  RH  043%=      5-min Rain = 0
KQU1 110616Z 29009KT 13/01 A2984 RMK A01 T01310008  RH  043%=      5-min Rain = 0
KQU1 110617Z 29009KT 13/01 A2984 RMK A01 T01310008  RH  043%=      5-min Rain = 0
KQU1 110618Z 29008KT 13/01 A2984 RMK A01 T01310008  RH  043%=      5-min Rain = 0
KQU1 110619Z 29009KT 13/01 A2984 RMK A01 T01310008  RH  043%=      5-min Rain = 0
KQU1 110620Z 29008KT 13/01 A2984 RMK A01 T01310008  RH  043%=      5-min Rain = 0
KQU1 110621Z 29008KT 13/01 A2984 RMK A01 T01310008  RH  043%=      5-min Rain = 0
KQU1 110622Z 29008KT 13/01 A2984 RMK A01 T01310008  RH  043%=      5-min Rain = 0
KQU1 110623Z 29007KT 13/01 A2984 RMK A01 T01310009  RH  043%=      5-min Rain = 0
KQU1 110624Z 30006KT 13/01 A2985 RMK A01 T01310009  RH  043%=      5-min Rain = 0
KQU1 110625Z 30005KT 13/01 A2985 RMK A01 T01310010  RH  044%=      5-min Rain = 0
KQU1 110626Z 30004KT 13/01 A2985 RMK A01 T01300010  RH  044%=      5-min Rain = 0
KQU1 110627Z 31004KT 13/01 A2985 RMK A01 T01300010  RH  044%=      5-min Rain = 0
KQU1 110628Z 32004KT 13/01 A2985 RMK A01 T01300011  RH  044%=      5-min Rain = 0
KQU1 110629Z 33003KT 13/01 A2985 RMK A01 T01290011  RH  044%=      5-min Rain = 0
KQU1 110630Z 32004KT 13/01 A2985 RMK A01 T01280011  RH  045%=      5-min Rain = 0
KQU1 110631Z 33005KT 13/01 A2985 RMK A01 T01280011  RH  045%=      5-min Rain = 0
KQU1 110632Z 33005KT 13/01 A2985 RMK A01 T01280012  RH  045%=      5-min Rain = 0
KQU1 110633Z 34004KT 13/01 A2985 RMK A01 T01280011  RH  045%=      5-min Rain = 0
KQU1 110634Z 33004KT 13/01 A2985 RMK A01 T01270011  RH  045%=      5-min Rain = 0
KQU1 110635Z 34003KT 13/01 A2985 RMK A01 T01270012  RH  045%=      5-min Rain = 0
KQU1 110636Z 33003KT 13/01 A2985 RMK A01 T01260012  RH  046%=      5-min Rain = 0
KQU1 110637Z 31002KT 13/01 A2985 RMK A01 T01260012  RH  046%=      5-min Rain = 0
KQU1 110638Z 34001KT 13/01 A2985 RMK A01 T01250011  RH  046%=      5-min Rain = 0
KQU1 110639Z 31001KT 13/01 A2985 RMK A01 T01250011  RH  046%=      5-min Rain = 0
KQU1 110640Z 29001KT 13/01 A2985 RMK A01 T01250011  RH  046%=      5-min Rain = 0
KQU1 110641Z 26002KT 13/01 A2985 RMK A01 T01250011  RH  046%=      5-min Rain = 0
KQU1 110642Z 28002KT 12/01 A2985 RMK A01 T01240011  RH  046%=      5-min Rain = 0
KQU1 110643Z 26001KT 12/01 A2985 RMK A01 T01240011  RH  046%=      5-min Rain = 0
KQU1 110644Z 20000KT 12/01 A2985 RMK A01 T01240011  RH  046%=      5-min Rain = 0
KQU1 110645Z 30000KT 12/01 A2985 RMK A01 T01230010  RH  046%=      5-min Rain = 0
KQU1 110646Z 30000KT 12/01 A2985 RMK A01 T01220009  RH  046%=      5-min Rain = 0
KQU1 110647Z 30000KT 12/01 A2985 RMK A01 T01220010  RH  046%=      5-min Rain = 0
KQU1 110648Z 33000KT 12/01 A2985 RMK A01 T01210010  RH  046%=      5-min Rain = 0
KQU1 110649Z 33002KT 12/01 A2985 RMK A01 T01210010  RH  047%=      5-min Rain = 0
KQU1 110650Z 32003KT 12/01 A2985 RMK A01 T01210011  RH  047%=      5-min Rain = 0
KQU1 110651Z 32005KT 12/01 A2985 RMK A01 T01210011  RH  047%=      5-min Rain = 0
KQU1 110652Z 32005KT 12/01 A2985 RMK A01 T01220011  RH  047%=      5-min Rain = 0
KQU1 110653Z 32006KT 12/01 A2985 RMK A01 T01230010  RH  046%=      5-min Rain = 0
KQU1 110654Z 31006KT 12/01 A2985 RMK A01 T01240010  RH  046%=      5-min Rain = 0
KQU1 110655Z 31006KT 13/01 A2985 RMK A01 T01250010  RH  045%=      5-min Rain = 0
KQU1 110656Z 31006KT 13/01 A2985 RMK A01 T01250009  RH  045%=      5-min Rain = 0
KQU1 110657Z 31005KT 13/01 A2985 RMK A01 T01260009  RH  045%=      5-min Rain = 0
KQU1 110658Z 30005KT 13/01 A2985 RMK A01 T01270010  RH  045%=      5-min Rain = 0
KQU1 110659Z 29005KT 13/01 A2985 RMK A01 T01270010  RH  045%=      5-min Rain = 0
KQU1 110700Z 30005KT 13/01 A2985 RMK A01 T01270009  RH  045%=      5-min Rain = 0
KQU1 110701Z 29004KT 13/01 A2985 RMK A01 T01280009  RH  044%=      5-min Rain = 0
KQU1 110702Z 29005KT 13/01 A2985 RMK A01 T01280009  RH  044%=      5-min Rain = 0
KQU1 110703Z 30007KT 13/01 A2985 RMK A01 T01280009  RH  044%=      5-min Rain = 0
KQU1 110704Z 30006KT 13/01 A2985 RMK A01 T01280009  RH  044%=      5-min Rain = 0
KQU1 110705Z 30005KT 13/01 A2985 RMK A01 T01290009  RH  044%=      5-min Rain = 0
KQU1 110706Z 31005KT 13/01 A2985 RMK A01 T01290009  RH  044%=      5-min Rain = 0
KQU1 110707Z 30005KT 13/01 A2985 RMK A01 T01290008  RH  044%=      5-min Rain = 0
KQU1 110708Z 31006KT 13/01 A2985 RMK A01 T01290008  RH  043%=      5-min Rain = 0
KQU1 110709Z 32006KT 13/01 A2985 RMK A01 T01290008  RH  044%=      5-min Rain = 0
KQU1 110710Z 31005KT 13/01 A2985 RMK A01 T01290007  RH  043%=      5-min Rain = 0
KQU1 110711Z 32005KT 13/01 A2985 RMK A01 T01290007  RH  043%=      5-min Rain = 0
KQU1 110712Z 32005KT 13/01 A2985 RMK A01 T01290008  RH  044%=      5-min Rain = 0
KQU1 110713Z 30005KT 13/01 A2985 RMK A01 T01290008  RH  044%=      5-min Rain = 0
KQU1 110714Z 30005KT 13/01 A2985 RMK A01 T01280008  RH  044%=      5-min Rain = 0
KQU1 110715Z 31005KT 13/01 A2985 RMK A01 T01280008  RH  044%=      5-min Rain = 0
KQU1 110716Z 32005KT 13/01 A2985 RMK A01 T01280009  RH  044%=      5-min Rain = 0
KQU1 110717Z 31004KT 13/01 A2985 RMK A01 T01270008  RH  044%=      5-min Rain = 0
KQU1 110718Z 30004KT 13/01 A2985 RMK A01 T01280009  RH  044%=      5-min Rain = 0
KQU1 110719Z 31004KT 13/01 A2985 RMK A01 T01270008  RH  044%=      5-min Rain = 0
KQU1 110720Z 30006KT 13/01 A2985 RMK A01 T01280008  RH  044%=      5-min Rain = 0
KQU1 110721Z 29007KT 13/01 A2985 RMK A01 T01290007  RH  043%=      5-min Rain = 0
KQU1 110722Z 29007KT 13/01 A2985 RMK A01 T01300006  RH  043%=      5-min Rain = 0
KQU1 110723Z 29007KT 13/01 A2985 RMK A01 T01310006  RH  042%=      5-min Rain = 0
KQU1 110724Z 29006KT 13/01 A2985 RMK A01 T01310006  RH  042%=      5-min Rain = 0
KQU1 110725Z 29006KT 13/01 A2985 RMK A01 T01320005  RH  042%=      5-min Rain = 0
KQU1 110726Z 30006KT 13/01 A2985 RMK A01 T01320006  RH  042%=      5-min Rain = 0
KQU1 110727Z 29006KT 13/01 A2985 RMK A01 T01310005  RH  042%=      5-min Rain = 0
KQU1 110728Z 29006KT 13/01 A2985 RMK A01 T01310005  RH  042%=      5-min Rain = 0
KQU1 110729Z 29007KT 13/01 A2986 RMK A01 T01310005  RH  042%=      5-min Rain = 0
KQU1 110730Z 30008KT 13/00 A2986 RMK A01 T01320004  RH  042%=      5-min Rain = 0
KQU1 110731Z 31007KT 13/00 A2986 RMK A01 T01320002  RH  041%=      5-min Rain = 0
KQU1 110732Z 31006KT 13/00 A2986 RMK A01 T01320003  RH  041%=      5-min Rain = 0
KQU1 110733Z 31008KT 13/00 A2986 RMK A01 T01320002  RH  041%=      5-min Rain = 0
KQU1 110734Z 31006KT 13/00 A2986 RMK A01 T01310003  RH  041%=      5-min Rain = 0
KQU1 110735Z 31007KT 13/00 A2986 RMK A01 T01300003  RH  042%=      5-min Rain = 0
KQU1 110736Z 30009KT 13/00 A2986 RMK A01 T01290003  RH  042%=      5-min Rain = 0
KQU1 110737Z 30009KT 13/00 A2986 RMK A01 T01280003  RH  042%=      5-min Rain = 0
KQU1 110738Z 30010KT 13/00 A2986 RMK A01 T01270004  RH  043%=      5-min Rain = 0
KQU1 110739Z 30010KT 13/00 A2986 RMK A01 T01250004  RH  043%=      5-min Rain = 0
KQU1 110740Z 31009KT 12/00 A2986 RMK A01 T01240004  RH  044%=      5-min Rain = 0
KQU1 110741Z 31009KT 12/00 A2986 RMK A01 T01230004  RH  044%=      5-min Rain = 0
KQU1 110742Z 31009KT 12/00 A2986 RMK A01 T01230004  RH  044%=      5-min Rain = 0
KQU1 110743Z 31009KT 12/01 A2986 RMK A01 T01230005  RH  044%=      5-min Rain = 0
KQU1 110744Z 31010KT 12/00 A2986 RMK A01 T01230004  RH  044%=      5-min Rain = 0
KQU1 110745Z 31008KT 12/00 A2986 RMK A01 T01240004  RH  044%=      5-min Rain = 0
KQU1 110746Z 31009KT 12/01 A2986 RMK A01 T01240005  RH  044%=      5-min Rain = 0
KQU1 110747Z 32009KT 12/01 A2987 RMK A01 T01240005  RH  044%=      5-min Rain = 0
KQU1 110748Z 32008KT 13/00 A2987 RMK A01 T01250004  RH  043%=      5-min Rain = 0
KQU1 110749Z 32008KT 13/01 A2987 RMK A01 T01260005  RH  043%=      5-min Rain = 0
KQU1 110750Z 33007KT 13/00 A2987 RMK A01 T01260004  RH  043%=      5-min Rain = 0
KQU1 110751Z 35006KT 13/00 A2987 RMK A01 T01270003  RH  042%=      5-min Rain = 0
KQU1 110752Z 35006KT 13/00 A2987 RMK A01 T01300002  RH  041%=      5-min Rain = 0
KQU1 110753Z 34008KT 13/00 A2987 RMK A01 T01330002  RH  041%=      5-min Rain = 0
KQU1 110754Z 35007KT 14/00 A2987 RMK A01 T01350001  RH  040%=      5-min Rain = 0
KQU1 110755Z 36008KT 14/00 A2987 RMK A01 T01370001  RH  039%=      5-min Rain = 0
KQU1 110756Z 35009G16KT 14/00 A2987 RMK A01 T01390000  RH  039%=      5-min Rain = 0
KQU1 110757Z 01010G15KT 14/M00 A2987 RMK A01 T01401001  RH  038%=      5-min Rain = 0
KQU1 110758Z 00007G12KT 14/M00 A2987 RMK A01 T01411002  RH  037%=      5-min Rain = 0
KQU1 110759Z 02008KT 14/M00 A2987 RMK A01 T01421002  RH  037%=      5-min Rain = 0
KQU1 110800Z 36009KT 14/M00 A2987 RMK A01 T01421002  RH  037%=      5-min Rain = 0
KQU1 110801Z 00010G15KT 14/M00 A2987 RMK A01 T01421002  RH  037%=      5-min Rain = 0
KQU1 110802Z 00007G13KT 14/M00 A2987 RMK A01 T01421001  RH  037%=      5-min Rain = 0
KQU1 110803Z 36007KT 14/00 A2987 RMK A01 T01410001  RH  038%=      5-min Rain = 0
KQU1 110804Z 01005KT 14/00 A2987 RMK A01 T01400002  RH  039%=      5-min Rain = 0
KQU1 110805Z 01007G12KT 14/00 A2987 RMK A01 T01390001  RH  039%=      5-min Rain = 0
KQU1 110806Z 01007G12KT 14/M00 A2988 RMK A01 T01381001  RH  038%=      5-min Rain = 0
KQU1 110807Z 01012G18KT 14/M00 A2988 RMK A01 T01381001  RH  039%=      5-min Rain = 0
KQU1 110808Z 36010G16KT 14/M00 A2988 RMK A01 T01371001  RH  039%=      5-min Rain = 0
KQU1 110809Z 00013G19KT 14/M00 A2988 RMK A01 T01361003  RH  038%=      5-min Rain = 0
KQU1 110810Z 35012G19KT 14/M00 A2988 RMK A01 T01361002  RH  039%=      5-min Rain = 0
KQU1 110811Z 36013G18KT 14/M00 A2988 RMK A01 T01351003  RH  039%=      5-min Rain = 0
KQU1 110812Z 00012G21KT 13/M00 A2988 RMK A01 T01341002  RH  039%=      5-min Rain = 0
KQU1 110813Z 35018G26KT 13/M00 A2988 RMK A01 T01331002  RH  039%=      5-min Rain = 0
KQU1 110814Z 35013G21KT 13/00 A2988 RMK A01 T013200-0  RH  040%=      5-min Rain = 0
KQU1 110815Z 35015G21KT 13/00 A2988 RMK A01 T01310001  RH  041%=      5-min Rain = 0
KQU1 110816Z 36016G22KT 13/00 A2988 RMK A01 T01290002  RH  042%=      5-min Rain = 0
KQU1 110817Z 35016G22KT 13/00 A2988 RMK A01 T01270003  RH  043%=      5-min Rain = 0
KQU1 110818Z 35017G24KT 13/00 A2988 RMK A01 T01260004  RH  043%=      5-min Rain = 0
KQU1 110819Z 35016G23KT 12/01 A2989 RMK A01 T01240006  RH  044%=      5-min Rain = 0
KQU1 110820Z 35013G20KT 12/01 A2989 RMK A01 T01230007  RH  045%=      5-min Rain = 0
KQU1 110821Z 34016G21KT 12/01 A2989 RMK A01 T01210008  RH  046%=      5-min Rain = 0
KQU1 110822Z 34016G22KT 12/01 A2989 RMK A01 T01200008  RH  046%=      5-min Rain = 0
KQU1 110823Z 35014G20KT 12/01 A2989 RMK A01 T01190008  RH  047%=      5-min Rain = 0
KQU1 110824Z 35014G20KT 12/01 A2989 RMK A01 T01170008  RH  047%=      5-min Rain = 0
KQU1 110825Z 34017G22KT 12/01 A2989 RMK A01 T01160010  RH  048%=      5-min Rain = 0
KQU1 110826Z 35017G27KT 12/01 A2989 RMK A01 T01150011  RH  049%=      5-min Rain = 0
KQU1 110827Z 34020KT 11/01 A2989 RMK A01 T01140012  RH  050%=      5-min Rain = 0
KQU1 110828Z 34022G27KT 11/02 A2989 RMK A01 T01130015  RH  051%=      5-min Rain = 0
KQU1 110829Z 34020G27KT 11/02 A2989 RMK A01 T01120017  RH  052%=      5-min Rain = 0
KQU1 110830Z 34021KT 11/02 A2989 RMK A01 T01110018  RH  053%=      5-min Rain = 0
KQU1 110831Z 35019G25KT 11/02 A2989 RMK A01 T01100019  RH  053%=      5-min Rain = 0
KQU1 110832Z 35017G26KT 11/02 A2989 RMK A01 T01090021  RH  055%=      5-min Rain = 0
KQU1 110833Z 34019G25KT 11/02 A2989 RMK A01 T01080022  RH  055%=      5-min Rain = 0
KQU1 110834Z 35016G22KT 11/02 A2989 RMK A01 T01070022  RH  056%=      5-min Rain = 0
KQU1 110835Z 34017G23KT 11/02 A2989 RMK A01 T01060024  RH  057%=      5-min Rain = 0
KQU1 110836Z 35020G26KT 11/03 A2989 RMK A01 T01060025  RH  057%=      5-min Rain = 0
KQU1 110837Z 35019G26KT 11/03 A2989 RMK A01 T01050027  RH  058%=      5-min Rain = 0
KQU1 110838Z 35019G25KT 10/03 A2989 RMK A01 T01040028  RH  059%=      5-min Rain = 0
KQU1 110839Z 34019G25KT 10/03 A2989 RMK A01 T01040030  RH  060%=      5-min Rain = 0
KQU1 110840Z 35020G25KT 10/03 A2989 RMK A01 T01030031  RH  061%=      5-min Rain = 0
KQU1 110841Z 35016G24KT 10/03 A2989 RMK A01 T01030031  RH  061%=      5-min Rain = 0
KQU1 110842Z 35020G29KT 10/03 A2989 RMK A01 T01020033  RH  062%=      5-min Rain = 0
KQU1 110843Z 35020G27KT 10/03 A2989 RMK A01 T01010034  RH  063%=      5-min Rain = 0
KQU1 110844Z 34023KT 10/04 A2989 RMK A01 T01010035  RH  064%=      5-min Rain = 0
KQU1 110845Z 34021G27KT 10/04 A299 RMK A01 T01010037  RH  064%=      5-min Rain = 0
KQU1 110846Z 34022G28KT 10/04 A299 RMK A01 T01000039  RH  066%=      5-min Rain = 0
KQU1 110847Z 35021G29KT 10/04 A299 RMK A01 T01000040  RH  066%=      5-min Rain = 0
KQU1 110848Z 34024G33KT 10/04 A299 RMK A01 T01000042  RH  067%=      5-min Rain = 0
KQU1 110849Z 35020G26KT 10/04 A299 RMK A01 T00990042  RH  067%=      5-min Rain = 0
KQU1 110850Z 35020G27KT 10/04 A299 RMK A01 T00990042  RH  068%=      5-min Rain = 0
KQU1 110851Z 35022G30KT 10/04 A299 RMK A01 T00980042  RH  068%=      5-min Rain = 0
KQU1 110852Z 34021G27KT 10/04 A299 RMK A01 T00980043  RH  069%=      5-min Rain = 0
KQU1 110853Z 35019G27KT 10/04 A299 RMK A01 T00970044  RH  069%=      5-min Rain = 0
KQU1 110854Z 35020G27KT 10/05 A299 RMK A01 T00970046  RH  071%=      5-min Rain = 0
KQU1 110855Z 35018G26KT 10/05 A299 RMK A01 T00970046  RH  071%=      5-min Rain = 0
KQU1 110856Z 34021G30KT 10/05 A2991 RMK A01 T00960046  RH  071%=      5-min Rain = 0
KQU1 110857Z 34021G27KT 10/05 A2991 RMK A01 T00960046  RH  071%=      5-min Rain = 0
KQU1 110858Z 35022G34KT 10/05 A2991 RMK A01 T00950046  RH  072%=      5-min Rain = 0
KQU1 110859Z 35021G29KT 09/05 A2991 RMK A01 T00940046  RH  072%=      5-min Rain = 0
KQU1 110900Z 35024G32KT 09/05 A2991 RMK A01 T00940047  RH  072%=      5-min Rain = 0
KQU1 110901Z 35024G29KT 09/05 A2991 RMK A01 T00930047  RH  073%=      5-min Rain = 0
KQU1 110902Z 35019G25KT 09/05 A2991 RMK A01 T00930047  RH  073%=      5-min Rain = 0
KQU1 110903Z 35022G28KT 09/05 A2991 RMK A01 T00930046  RH  073%=      5-min Rain = 0
KQU1 110904Z 34024G33KT 09/05 A2991 RMK A01 T00920045  RH  073%=      5-min Rain = 0
KQU1 110905Z 34028G34KT 09/05 A2991 RMK A01 T00910045  RH  073%=      5-min Rain = 0
KQU1 110906Z 33026G31KT 09/05 A2991 RMK A01 T00910045  RH  073%=      5-min Rain = 0
KQU1 110907Z 35021G33KT 09/05 A2991 RMK A01 T00900045  RH  073%=      5-min Rain = 0
KQU1 110908Z 34022G27KT 09/05 A2991 RMK A01 T00900045  RH  074%=      5-min Rain = 0
KQU1 110909Z 34022G28KT 09/05 A2992 RMK A01 T00900045  RH  074%=      5-min Rain = 0
KQU1 110910Z 34021G27KT 09/05 A2992 RMK A01 T00900045  RH  074%=      5-min Rain = 0
KQU1 110911Z 34020G26KT 09/05 A2992 RMK A01 T00890045  RH  074%=      5-min Rain = 0
KQU1 110912Z 34021KT 09/05 A2992 RMK A01 T00890045  RH  074%=      5-min Rain = 0
KQU1 110913Z 34025G31KT 09/04 A2992 RMK A01 T00890044  RH  074%=      5-min Rain = 0
KQU1 110914Z 34027KT 09/04 A2992 RMK A01 T00890044  RH  074%=      5-min Rain = 0
KQU1 110915Z 34026KT 09/04 A2992 RMK A01 T00880044  RH  074%=      5-min Rain = 0
KQU1 110916Z 34026KT 09/04 A2992 RMK A01 T00880044  RH  074%=      5-min Rain = 0
KQU1 110917Z 35020G28KT 09/04 A2992 RMK A01 T00870044  RH  074%=      5-min Rain = 0
KQU1 110918Z 34021G30KT 09/04 A2992 RMK A01 T00870044  RH  074%=      5-min Rain = 0
KQU1 110919Z 34022G29KT 09/04 A2992 RMK A01 T00870044  RH  074%=      5-min Rain = 0
KQU1 110920Z 34022G27KT 09/04 A2993 RMK A01 T00870043  RH  074%=      5-min Rain = 0
KQU1 110921Z 34022G28KT 09/04 A2993 RMK A01 T00870043  RH  074%=      5-min Rain = 0
KQU1 110922Z 34022G29KT 09/04 A2993 RMK A01 T00870043  RH  074%=      5-min Rain = 0
KQU1 110923Z 34021G26KT 09/04 A2993 RMK A01 T00860043  RH  074%=      5-min Rain = 0
KQU1 110924Z 35022G29KT 09/04 A2993 RMK A01 T00860043  RH  074%=      5-min Rain = 0
KQU1 110925Z 34020G26KT 09/04 A2993 RMK A01 T00860043  RH  074%=      5-min Rain = 0
KQU1 110926Z 35022G27KT 09/04 A2994 RMK A01 T00860043  RH  074%=      5-min Rain = 0
KQU1 110927Z 34024G30KT 09/04 A2994 RMK A01 T00860043  RH  074%=      5-min Rain = 0
KQU1 110928Z 35024G32KT 09/04 A2994 RMK A01 T00860043  RH  074%=      5-min Rain = 0
KQU1 110929Z 34026G35KT 09/04 A2994 RMK A01 T00860043  RH  074%=      5-min Rain = 0
KQU1 110930Z 34025G32KT 09/04 A2994 RMK A01 T00860043  RH  074%=      5-min Rain = 0
KQU1 110931Z 35026KT 09/04 A2994 RMK A01 T00860042  RH  074%=      5-min Rain = 0
KQU1 110932Z 34022G27KT 09/04 A2994 RMK A01 T00860043  RH  074%=      5-min Rain = 0
KQU1 110933Z 34019G26KT 09/04 A2994 RMK A01 T00860043  RH  074%=      5-min Rain = 0
KQU1 110934Z 34023G35KT 09/04 A2994 RMK A01 T00860043  RH  074%=      5-min Rain = 0
KQU1 110935Z 34024G31KT 09/04 A2995 RMK A01 T00860042  RH  074%=      5-min Rain = 0
KQU1 110936Z 34024G31KT 09/04 A2995 RMK A01 T00860042  RH  074%=      5-min Rain = 0
KQU1 110937Z 35021G26KT 09/04 A2995 RMK A01 T00860042  RH  074%=      5-min Rain = 0
KQU1 110938Z 35025G34KT 09/04 A2995 RMK A01 T00860042  RH  074%=      5-min Rain = 0
KQU1 110939Z 35020G26KT 09/04 A2995 RMK A01 T00860042  RH  074%=      5-min Rain = 0
KQU1 110940Z 35024G29KT 09/04 A2995 RMK A01 T00860042  RH  074%=      5-min Rain = 0
KQU1 110941Z 35022G28KT 09/04 A2995 RMK A01 T00860042  RH  074%=      5-min Rain = 0
KQU1 110942Z 34023G30KT 09/04 A2995 RMK A01 T00860042  RH  074%=      5-min Rain = 0
KQU1 110943Z 34021KT 09/04 A2995 RMK A01 T00860042  RH  074%=      5-min Rain = 0
KQU1 110944Z 34023G29KT 09/04 A2996 RMK A01 T00860042  RH  074%=      5-min Rain = 0
KQU1 110945Z 34017G28KT 09/04 A2996 RMK A01 T00860042  RH  074%=      5-min Rain = 0
KQU1 110946Z 35020G28KT 09/04 A2996 RMK A01 T00860042  RH  074%=      5-min Rain = 0
KQU1 110947Z 34024G30KT 09/04 A2996 RMK A01 T00860042  RH  074%=      5-min Rain = 0
KQU1 110948Z 34026G32KT 09/04 A2996 RMK A01 T00860041  RH  074%=      5-min Rain = 0
KQU1 110949Z 35024KT 09/04 A2996 RMK A01 T00860042  RH  074%=      5-min Rain = 0
KQU1 110950Z 35024G34KT 09/04 A2996 RMK A01 T00860042  RH  074%=      5-min Rain = 0
KQU1 110951Z 34026G33KT 09/04 A2996 RMK A01 T00850042  RH  074%=      5-min Rain = 0
KQU1 110952Z 35024G32KT 09/04 A2996 RMK A01 T00850042  RH  074%=      5-min Rain = 0
KQU1 110953Z 34024G31KT 09/04 A2996 RMK A01 T00850041  RH  074%=      5-min Rain = 0
KQU1 110954Z 35024G30KT 09/04 A2996 RMK A01 T00850041  RH  074%=      5-min Rain = 0
KQU1 110955Z 35024G32KT 09/04 A2996 RMK A01 T00850041  RH  074%=      5-min Rain = 0
KQU1 110956Z 35021G32KT 09/04 A2996 RMK A01 T00850042  RH  074%=      5-min Rain = 0
KQU1 110957Z 35023G31KT 09/04 A2997 RMK A01 T00850041  RH  074%=      5-min Rain = 0
KQU1 110958Z 34025G34KT 09/04 A2997 RMK A01 T00850041  RH  074%=      5-min Rain = 0
KQU1 110959Z 35023G31KT 09/04 A2997 RMK A01 T00850041  RH  074%=      5-min Rain = 0
KQU1 111000Z 34023G31KT 09/04 A2997 RMK A01 T00850040  RH  074%=      5-min Rain = 0
KQU1 111001Z 35021G27KT 09/04 A2997 RMK A01 T00850040  RH  074%=      5-min Rain = 0
KQU1 111002Z 35019KT 08/04 A2998 RMK A01 T00840040  RH  074%=      5-min Rain = 0
KQU1 111003Z 35021G31KT 08/04 A2998 RMK A01 T00840040  RH  074%=      5-min Rain = 0
KQU1 111004Z 35025G30KT 08/04 A2998 RMK A01 T00840040  RH  073%=      5-min Rain = 0
KQU1 111005Z 35023G30KT 08/04 A2998 RMK A01 T00840039  RH  073%=      5-min Rain = 0
KQU1 111006Z 33022G29KT 08/04 A2998 RMK A01 T00840039  RH  073%=      5-min Rain = 0
KQU1 111007Z 35019G26KT 08/04 A2998 RMK A01 T00840039  RH  073%=      5-min Rain = 0
KQU1 111008Z 35021G29KT 08/04 A2998 RMK A01 T00840038  RH  073%=      5-min Rain = 0
KQU1 111009Z 35024G32KT 08/04 A2999 RMK A01 T00830037  RH  073%=      5-min Rain = 0
KQU1 111010Z 35019G26KT 08/04 A2999 RMK A01 T00830037  RH  073%=      5-min Rain = 0
KQU1 111011Z 35020G30KT 08/04 A2999 RMK A01 T00830038  RH  073%=      5-min Rain = 0
KQU1 111012Z 35019G28KT 08/04 A2999 RMK A01 T00830038  RH  073%=      5-min Rain = 0
KQU1 111013Z 35022G36KT 08/04 A2999 RMK A01 T00830037  RH  073%=      5-min Rain = 0
KQU1 111014Z 34024G33KT 08/04 A2999 RMK A01 T00830037  RH  073%=      5-min Rain = 0
KQU1 111015Z 36022G28KT 08/04 A2999 RMK A01 T00830037  RH  073%=      5-min Rain = 0
KQU1 111016Z 35022G27KT 08/04 A2999 RMK A01 T00820036  RH  073%=      5-min Rain = 0
KQU1 111017Z 35022G31KT 08/04 A2999 RMK A01 T00820037  RH  073%=      5-min Rain = 0
KQU1 111018Z 35025G34KT 08/04 A2999 RMK A01 T00820036  RH  073%=      5-min Rain = 0
KQU1 111019Z 00022G31KT 08/04 A2999 RMK A01 T00820036  RH  073%=      5-min Rain = 0
KQU1 111020Z 35025G34KT 08/04 A2999 RMK A01 T00820035  RH  072%=      5-min Rain = 0
KQU1 111021Z 36022G31KT 08/04 A30 RMK A01 T00810035  RH  073%=      5-min Rain = 0
KQU1 111022Z 36017G27KT 08/04 A30 RMK A01 T00810035  RH  073%=      5-min Rain = 0
KQU1 111023Z 00019G30KT 08/04 A30 RMK A01 T00810035  RH  073%=      5-min Rain = 0
KQU1 111024Z 35016G23KT 08/04 A30 RMK A01 T00810035  RH  073%=      5-min Rain = 0
KQU1 111025Z 35028G38KT 08/03 A30 RMK A01 T00800033  RH  072%=      5-min Rain = 0
KQU1 111026Z 34025G34KT 08/03 A3001 RMK A01 T00790031  RH  072%=      5-min Rain = 0
KQU1 111027Z 35025G34KT 08/03 A3001 RMK A01 T00780030  RH  072%=      5-min Rain = 0
KQU1 111028Z 35022G29KT 08/03 A3001 RMK A01 T00770030  RH  072%=      5-min Rain = 0
KQU1 111029Z 01019G28KT 08/03 A3001 RMK A01 T00760029  RH  072%=      5-min Rain = 0
KQU1 111030Z 01017G22KT 08/03 A3001 RMK A01 T00760029  RH  072%=      5-min Rain = 0
KQU1 111031Z 01016G24KT 08/03 A3002 RMK A01 T00750029  RH  072%=      5-min Rain = 0
KQU1 111032Z 35015G24KT 08/03 A3002 RMK A01 T00750029  RH  073%=      5-min Rain = 0
KQU1 111033Z 35015G23KT 08/03 A3002 RMK A01 T00750029  RH  073%=      5-min Rain = 0
KQU1 111034Z 36026G33KT 07/03 A3002 RMK A01 T00740026  RH  072%=      5-min Rain = 0
KQU1 111035Z 35025G32KT 07/03 A3002 RMK A01 T00730025  RH  072%=      5-min Rain = 0
KQU1 111036Z 36023G32KT 07/03 A3002 RMK A01 T00720025  RH  072%=      5-min Rain = 0
KQU1 111037Z 00022G29KT 07/02 A3002 RMK A01 T00710024  RH  072%=      5-min Rain = 0
KQU1 111038Z 00019G28KT 07/02 A3003 RMK A01 T00710024  RH  072%=      5-min Rain = 0
KQU1 111039Z 01017G27KT 07/02 A3003 RMK A01 T00700023  RH  072%=      5-min Rain = 0
KQU1 111040Z 00014G21KT 07/02 A3003 RMK A01 T00700022  RH  072%=      5-min Rain = 0
KQU1 111041Z 00019G27KT 07/02 A3003 RMK A01 T00690021  RH  072%=      5-min Rain = 0
KQU1 111042Z 36016G32KT 07/02 A3003 RMK A01 T00680020  RH  071%=      5-min Rain = 0
KQU1 111043Z 35021G29KT 07/02 A3003 RMK A01 T00680019  RH  071%=      5-min Rain = 0
KQU1 111044Z 36015G22KT 07/02 A3004 RMK A01 T00670019  RH  071%=      5-min Rain = 0
KQU1 111045Z 01017G26KT 07/02 A3004 RMK A01 T00670019  RH  072%=      5-min Rain = 0
KQU1 111046Z 36018G23KT 07/02 A3004 RMK A01 T00660019  RH  071%=      5-min Rain = 0
KQU1 111047Z 00018G24KT 07/02 A3004 RMK A01 T00660019  RH  072%=      5-min Rain = 0
KQU1 111048Z 00016G26KT 07/02 A3004 RMK A01 T00660019  RH  072%=      5-min Rain = 0
KQU1 111049Z 00013G28KT 07/02 A3004 RMK A01 T00660019  RH  072%=      5-min Rain = 0
KQU1 111050Z 35019G27KT 07/02 A3005 RMK A01 T00660018  RH  071%=      5-min Rain = 0
KQU1 111051Z 00016G24KT 07/02 A3005 RMK A01 T00660019  RH  072%=      5-min Rain = 0
KQU1 111052Z 00014G21KT 07/02 A3005 RMK A01 T00660019  RH  072%=      5-min Rain = 0
KQU1 111053Z 36012G23KT 07/02 A3005 RMK A01 T00660018  RH  071%=      5-min Rain = 0
KQU1 111054Z 36016G28KT 07/02 A3005 RMK A01 T00650017  RH  071%=      5-min Rain = 0
KQU1 111055Z 00014G25KT 06/02 A3006 RMK A01 T00640016  RH  071%=      5-min Rain = 0
KQU1 111056Z 01013G20KT 06/02 A3006 RMK A01 T00640016  RH  071%=      5-min Rain = 0
KQU1 111057Z 35015G24KT 06/02 A3006 RMK A01 T00640016  RH  072%=      5-min Rain = 0
KQU1 111058Z 35016G21KT 06/02 A3006 RMK A01 T00630015  RH  071%=      5-min Rain = 0
KQU1 111059Z 34023G28KT 06/01 A3006 RMK A01 T00620012  RH  070%=      5-min Rain = 0
KQU1 111100Z 35024G33KT 06/01 A3007 RMK A01 T00610009  RH  069%=      5-min Rain = 0
KQU1 111101Z 35023G35KT 06/01 A3007 RMK A01 T00590008  RH  070%=      5-min Rain = 0
KQU1 111102Z 35022G33KT 06/01 A3007 RMK A01 T00580007  RH  070%=      5-min Rain = 0
KQU1 111103Z 35024G32KT 06/01 A3007 RMK A01 T00570007  RH  070%=      5-min Rain = 0
KQU1 111104Z 36022G30KT 06/01 A3007 RMK A01 T00570007  RH  070%=      5-min Rain = 0
KQU1 111105Z 34019G32KT 06/01 A3008 RMK A01 T00560007  RH  071%=      5-min Rain = 0
KQU1 111106Z 35021G34KT 06/01 A3007 RMK A01 T00560007  RH  070%=      5-min Rain = 0
KQU1 111107Z 36021G30KT 06/01 A3007 RMK A01 T00560007  RH  071%=      5-min Rain = 0
KQU1 111108Z 35021G27KT 06/01 A3008 RMK A01 T00550007  RH  071%=      5-min Rain = 0
KQU1 111109Z 35025G34KT 06/01 A3008 RMK A01 T00550006  RH  071%=      5-min Rain = 0
KQU1 111110Z 01019G31KT 05/01 A3008 RMK A01 T00540006  RH  071%=      5-min Rain = 0
KQU1 111111Z 36019G26KT 05/00 A3008 RMK A01 T00540004  RH  071%=      5-min Rain = 0
KQU1 111112Z 35024G35KT 05/00 A3008 RMK A01 T00530003  RH  070%=      5-min Rain = 0
KQU1 111113Z 36020G32KT 05/00 A3009 RMK A01 T00510003  RH  071%=      5-min Rain = 0
KQU1 111114Z 36023G36KT 05/00 A3009 RMK A01 T00510002  RH  071%=      5-min Rain = 0
KQU1 111115Z 00025G38KT 05/00 A3009 RMK A01 T00500001  RH  071%=      5-min Rain = 0
KQU1 111116Z 36017G25KT 05/00 A3009 RMK A01 T00490001  RH  071%=      5-min Rain = 0
KQU1 111117Z 36018G27KT 05/00 A301 RMK A01 T00490001  RH  072%=      5-min Rain = 0
KQU1 111118Z 35017G27KT 05/00 A301 RMK A01 T00480000  RH  071%=      5-min Rain = 0
KQU1 111119Z 36018G27KT 05/00 A301 RMK A01 T00470001  RH  072%=      5-min Rain = 0
KQU1 111120Z 35026G34KT 05/M00 A301 RMK A01 T00461001  RH  071%=      5-min Rain = 0
KQU1 111121Z 35027G34KT 05/M00 A3011 RMK A01 T00451004  RH  071%=      5-min Rain = 0
KQU1 111122Z 35022G30KT 04/M00 A3011 RMK A01 T00431004  RH  072%=      5-min Rain = 0
KQU1 111123Z 35028G36KT 04/M01 A3011 RMK A01 T00411006  RH  072%=      5-min Rain = 0
KQU1 111124Z 35022G33KT 04/M01 A3011 RMK A01 T00391006  RH  073%=      5-min Rain = 0
KQU1 111125Z 35020G28KT 04/M01 A3011 RMK A01 T00381006  RH  073%=      5-min Rain = 0
KQU1 111126Z 36019G32KT 04/M01 A3011 RMK A01 T00381005  RH  074%=      5-min Rain = 0
KQU1 111127Z 00021G29KT 04/M01 A3012 RMK A01 T00361006  RH  074%=      5-min Rain = 0
KQU1 111128Z 35023G32KT 04/M01 A3012 RMK A01 T00351008  RH  074%=      5-min Rain = 0
KQU1 111129Z 36021G34KT 03/M01 A3013 RMK A01 T00341007  RH  074%=      5-min Rain = 0
KQU1 111130Z 00023G34KT 03/M01 A3013 RMK A01 T00331008  RH  074%=      5-min Rain = 0
KQU1 111131Z 35022G34KT 03/M01 A3012 RMK A01 T00321008  RH  075%=      5-min Rain = 0
KQU1 111132Z 35019G25KT 03/M01 A3013 RMK A01 T00311009  RH  075%=      5-min Rain = 0
KQU1 111133Z 35023G33KT 03/M01 A3013 RMK A01 T00301009  RH  076%=      5-min Rain = 0
KQU1 111134Z 35015G28KT 03/M01 A3013 RMK A01 T00301009  RH  076%=      5-min Rain = 0
KQU1 111135Z 36016G26KT 03/M01 A3013 RMK A01 T00291010  RH  076%=      5-min Rain = 0
KQU1 111136Z 01015G25KT 03/M01 A3013 RMK A01 T00291009  RH  076%=      5-min Rain = 0
KQU1 111137Z 36017G30KT 03/M01 A3013 RMK A01 T00281009  RH  076%=      5-min Rain = 0
KQU1 111138Z 35018G32KT 03/M01 A3013 RMK A01 T00281011  RH  076%=      5-min Rain = 0
KQU1 111139Z 01019G28KT 03/M01 A3013 RMK A01 T00271011  RH  076%=      5-min Rain = 0
KQU1 111140Z 36017G29KT 03/M01 A3013 RMK A01 T00271011  RH  076%=      5-min Rain = 0
KQU1 111141Z 36016G24KT 03/M01 A3014 RMK A01 T00271011  RH  076%=      5-min Rain = 0
KQU1 111142Z 36015G23KT 03/M01 A3014 RMK A01 T00271011  RH  076%=      5-min Rain = 0
KQU1 111143Z 01016G24KT 03/M01 A3014 RMK A01 T00261011  RH  076%=      5-min Rain = 0
KQU1 111144Z 00016G27KT 03/M01 A3014 RMK A01 T00261011  RH  076%=      5-min Rain = 0
KQU1 111145Z 36018G30KT 03/M01 A3015 RMK A01 T00261012  RH  076%=      5-min Rain = 0
KQU1 111146Z 35018G30KT 03/M01 A3015 RMK A01 T00251012  RH  076%=      5-min Rain = 0
KQU1 111147Z 35023G34KT 03/M01 A3015 RMK A01 T00251013  RH  076%=      5-min Rain = 0
KQU1 111148Z 35015G22KT 03/M01 A3015 RMK A01 T00251011  RH  077%=      5-min Rain = 0
KQU1 111149Z 00020G30KT 02/M01 A3015 RMK A01 T00241013  RH  077%=      5-min Rain = 0
KQU1 111150Z 35023G32KT 02/M01 A3015 RMK A01 T00231013  RH  077%=      5-min Rain = 0
KQU1 111151Z 35019G28KT 02/M01 A3015 RMK A01 T00231014  RH  077%=      5-min Rain = 0
KQU1 111152Z 00017G26KT 02/M01 A3015 RMK A01 T00221014  RH  077%=      5-min Rain = 0
KQU1 111153Z 36014G23KT 02/M01 A3016 RMK A01 T00211014  RH  077%=      5-min Rain = 0
KQU1 111154Z 00022G35KT 02/M02 A3016 RMK A01 T00211016  RH  077%=      5-min Rain = 0
KQU1 111155Z 00018G25KT 02/M02 A3016 RMK A01 T00201016  RH  077%=      5-min Rain = 0
KQU1 111156Z 36014G21KT 02/M02 A3016 RMK A01 T00191016  RH  077%=      5-min Rain = 0
KQU1 111157Z 01018G25KT 02/M02 A3016 RMK A01 T00191016  RH  077%=      5-min Rain = 0
KQU1 111158Z 01017G26KT 02/M02 A3017 RMK A01 T00191016  RH  078%=      5-min Rain = 0
KQU1 111159Z 01019G29KT 02/M02 A3017 RMK A01 T00191017  RH  077%=      5-min Rain = 0
KQU1 111200Z 36014G19KT 02/M02 A3017 RMK A01 T00191016  RH  078%=      5-min Rain = 0
KQU1 111201Z 00012G18KT 02/M02 A3017 RMK A01 T00191016  RH  078%=      5-min Rain = 0
KQU1 111202Z 36016G23KT 02/M02 A3018 RMK A01 T00191016  RH  078%=      5-min Rain = 0
KQU1 111203Z 00016G35KT 02/M02 A3017 RMK A01 T00191016  RH  077%=      5-min Rain = 0
KQU1 111204Z 01021G35KT 02/M02 A3018 RMK A01 T00191018  RH  077%=      5-min Rain = 0
KQU1 111205Z 35020G27KT 02/M02 A3018 RMK A01 T00181018  RH  077%=      5-min Rain = 0
KQU1 111206Z 35021G31KT 02/M02 A3018 RMK A01 T00181018  RH  077%=      5-min Rain = 0
KQU1 111207Z 35016G24KT 02/M02 A3018 RMK A01 T00181018  RH  077%=      5-min Rain = 0
KQU1 111208Z 35015G21KT 02/M02 A3018 RMK A01 T00181018  RH  077%=      5-min Rain = 0
KQU1 111209Z 34022G28KT 02/M02 A3018 RMK A01 T00171020  RH  076%=      5-min Rain = 0
KQU1 111210Z 35019G27KT 02/M02 A3018 RMK A01 T00161021  RH  076%=      5-min Rain = 0
KQU1 111211Z 35018G29KT 02/M02 A3019 RMK A01 T00161020  RH  077%=      5-min Rain = 0
KQU1 111212Z 35019G31KT 02/M02 A3018 RMK A01 T00151022  RH  076%=      5-min Rain = 0
KQU1 111213Z 35019G28KT 02/M02 A3019 RMK A01 T00151023  RH  076%=      5-min Rain = 0
KQU1 111214Z 35015G26KT 02/M02 A3019 RMK A01 T00151022  RH  077%=      5-min Rain = 0
KQU1 111215Z 35026G38KT 02/M02 A3019 RMK A01 T00151022  RH  076%=      5-min Rain = 0
KQU1 111216Z 36025G33KT 01/M02 A3019 RMK A01 T00141024  RH  076%=      5-min Rain = 0
KQU1 111217Z 36026G33KT 01/M03 A3018 RMK A01 T00141025  RH  075%=      5-min Rain = 0
KQU1 111218Z 36022G28KT 01/M03 A3018 RMK A01 T00131025  RH  075%=      5-min Rain = 0
KQU1 111219Z 35022G32KT 01/M03 A3019 RMK A01 T00131025  RH  076%=      5-min Rain = 0
KQU1 111220Z 35019G26KT 01/M02 A3019 RMK A01 T00131024  RH  076%=      5-min Rain = 0
KQU1 111221Z 36020G27KT 01/M03 A3019 RMK A01 T00131025  RH  076%=      5-min Rain = 0
KQU1 111222Z 36017G24KT 01/M03 A3019 RMK A01 T00131025  RH  076%=      5-min Rain = 0
KQU1 111223Z 36013G19KT 01/M02 A3019 RMK A01 T00131024  RH  076%=      5-min Rain = 0
KQU1 111224Z 35019G27KT 01/M03 A3019 RMK A01 T00131025  RH  076%=      5-min Rain = 0
KQU1 111225Z 35017G28KT 01/M03 A3019 RMK A01 T00131025  RH  076%=      5-min Rain = 0
KQU1 111226Z 36019G28KT 01/M03 A302 RMK A01 T00131026  RH  075%=      5-min Rain = 0
KQU1 111227Z 35019G25KT 01/M03 A302 RMK A01 T00131026  RH  076%=      5-min Rain = 0
KQU1 111228Z 35021G30KT 01/M03 A302 RMK A01 T00131026  RH  075%=      5-min Rain = 0
KQU1 111229Z 35017G27KT 01/M03 A302 RMK A01 T00121026  RH  075%=      5-min Rain = 0
KQU1 111230Z 35015G20KT 01/M03 A302 RMK A01 T00121026  RH  076%=      5-min Rain = 0
KQU1 111231Z 36018G33KT 01/M03 A302 RMK A01 T00121026  RH  076%=      5-min Rain = 0
KQU1 111232Z 35024G35KT 01/M03 A302 RMK A01 T00121027  RH  075%=      5-min Rain = 0
KQU1 111233Z 36024G30KT 01/M03 A302 RMK A01 T00121027  RH  075%=      5-min Rain = 0
KQU1 111234Z 35020G31KT 01/M03 A302 RMK A01 T00111028  RH  075%=      5-min Rain = 0
KQU1 111235Z 35028G39KT 01/M03 A302 RMK A01 T00111029  RH  075%=      5-min Rain = 0
KQU1 111236Z 35021G31KT 01/M03 A302 RMK A01 T00111028  RH  075%=      5-min Rain = 0
KQU1 111237Z 35023G31KT 01/M03 A302 RMK A01 T00101028  RH  075%=      5-min Rain = 0
KQU1 111238Z 35021G26KT 01/M03 A302 RMK A01 T00101028  RH  076%=      5-min Rain = 0
KQU1 111239Z 36024G37KT 01/M03 A302 RMK A01 T00101028  RH  076%=      5-min Rain = 0
KQU1 111240Z 35018G27KT 01/M03 A302 RMK A01 T00101027  RH  076%=      5-min Rain = 0
KQU1 111241Z 01018G27KT 01/M03 A302 RMK A01 T00101028  RH  076%=      5-min Rain = 0
KQU1 111242Z 35022G32KT 01/M03 A302 RMK A01 T00101029  RH  075%=      5-min Rain = 0
KQU1 111243Z 36019G26KT 01/M03 A3021 RMK A01 T00091029  RH  076%=      5-min Rain = 0
KQU1 111244Z 35021G31KT 01/M03 A3021 RMK A01 T00091028  RH  076%=      5-min Rain = 0
KQU1 111245Z 35023G30KT 01/M03 A3021 RMK A01 T00091029  RH  076%=      5-min Rain = 0
KQU1 111246Z 35023G30KT 01/M03 A3021 RMK A01 T00091029  RH  076%=      5-min Rain = 0
KQU1 111247Z 36021G33KT 01/M03 A3021 RMK A01 T00091029  RH  076%=      5-min Rain = 0
KQU1 111248Z 00019G26KT 01/M03 A3022 RMK A01 T00091028  RH  076%=      5-min Rain = 0
KQU1 111249Z 36014G25KT 01/M03 A3022 RMK A01 T00091028  RH  076%=      5-min Rain = 0
KQU1 111250Z 35015G20KT 01/M03 A3022 RMK A01 T00091028  RH  076%=      5-min Rain = 0
KQU1 111251Z 35019G33KT 01/M03 A3022 RMK A01 T00091028  RH  076%=      5-min Rain = 0
KQU1 111252Z 36024G30KT 01/M03 A3022 RMK A01 T00091030  RH  076%=      5-min Rain = 0
KQU1 111253Z 36021G28KT 01/M03 A3022 RMK A01 T00081029  RH  076%=      5-min Rain = 0
KQU1 111254Z 35019G31KT 01/M03 A3022 RMK A01 T00081028  RH  077%=      5-min Rain = 0
KQU1 111255Z 35020G26KT 01/M03 A3022 RMK A01 T00081028  RH  077%=      5-min Rain = 0
KQU1 111256Z 35018G24KT 01/M03 A3022 RMK A01 T00081028  RH  077%=      5-min Rain = 0
KQU1 111257Z 00019G31KT 01/M03 A3022 RMK A01 T00081027  RH  077%=      5-min Rain = 0
KQU1 111258Z 35017G27KT 01/M03 A3022 RMK A01 T00081027  RH  077%=      5-min Rain = 0
KQU1 111259Z 35023G32KT 01/M03 A3022 RMK A01 T00081027  RH  078%=      5-min Rain = 0
KQU1 111300Z 00027G36KT 01/M03 A3022 RMK A01 T00071028  RH  077%=      5-min Rain = 0
KQU1 111301Z 36021G36KT 01/M03 A3022 RMK A01 T00061028  RH  078%=      5-min Rain = 0
KQU1 111302Z 35027G36KT 01/M03 A3022 RMK A01 T00061028  RH  078%=      5-min Rain = 0
KQU1 111303Z 35019G25KT 01/M03 A3022 RMK A01 T00061027  RH  079%=      5-min Rain = 0
KQU1 111304Z 35027G34KT 01/M03 A3022 RMK A01 T00061027  RH  078%=      5-min Rain = 0
KQU1 111305Z 35023G33KT 01/M03 A3022 RMK A01 T00061028  RH  078%=      5-min Rain = 0
KQU1 111306Z 00017G24KT 01/M03 A3022 RMK A01 T00051027  RH  079%=      5-min Rain = 0
KQU1 111307Z 36020G29KT 01/M03 A3022 RMK A01 T00051027  RH  079%=      5-min Rain = 0
KQU1 111308Z 01017G26KT 01/M03 A3022 RMK A01 T00051027  RH  079%=      5-min Rain = 0
KQU1 111309Z 00021G32KT 01/M03 A3022 RMK A01 T00051027  RH  079%=      5-min Rain = 0
KQU1 111310Z 01018G26KT 01/M03 A3023 RMK A01 T00051027  RH  079%=      5-min Rain = 0
KQU1 111311Z 01015G21KT 01/M03 A3023 RMK A01 T00051027  RH  080%=      5-min Rain = 0
KQU1 111312Z 00023G33KT 01/M03 A3023 RMK A01 T00051026  RH  080%=      5-min Rain = 0
KQU1 111313Z 36016G32KT 00/M03 A3023 RMK A01 T00041026  RH  080%=      5-min Rain = 0
KQU1 111314Z 35018G27KT 00/M03 A3023 RMK A01 T00041025  RH  081%=      5-min Rain = 0
KQU1 111315Z 01018G25KT 00/M03 A3023 RMK A01 T00041026  RH  081%=      5-min Rain = 0
KQU1 111316Z 35016G33KT 00/M03 A3023 RMK A01 T00031025  RH  081%=      5-min Rain = 0
KQU1 111317Z 01021G34KT 00/M03 A3024 RMK A01 T00021025  RH  082%=      5-min Rain = 0
KQU1 111318Z 01020G30KT 00/M03 A3024 RMK A01 T00011026  RH  082%=      5-min Rain = 0
KQU1 111319Z 00021G27KT 00/03 A3024 RMK A01 T00000-26  RH  082%=      5-min Rain = 0
KQU1 111320Z 00015G20KT 00/03 A3024 RMK A01 T00-00-26  RH  083%=      5-min Rain = 0
KQU1 111321Z 36017G25KT M00/M03 A3024 RMK A01 T10011026  RH  083%=      5-min Rain = 0
KQU1 111322Z 00015G26KT M00/M03 A3024 RMK A01 T10011027  RH  083%=      5-min Rain = 0
KQU1 111323Z 36021G35KT M00/M03 A3024 RMK A01 T10021028  RH  083%=      5-min Rain = 0
KQU1 111324Z 01020G33KT M00/M03 A3024 RMK A01 T10021029  RH  082%=      5-min Rain = 0
KQU1 111325Z 02019G29KT M00/M03 A3025 RMK A01 T10031029  RH  082%=      5-min Rain = 0
KQU1 111326Z 00020G27KT M00/M03 A3025 RMK A01 T10031030  RH  082%=      5-min Rain = 0
KQU1 111327Z 00019G24KT M00/M03 A3025 RMK A01 T10031030  RH  082%=      5-min Rain = 0
KQU1 111328Z 01017G22KT M00/M03 A3025 RMK A01 T10031029  RH  083%=      5-min Rain = 0
KQU1 111329Z 35017G27KT M00/M03 A3025 RMK A01 T10031030  RH  082%=      5-min Rain = 0
KQU1 111330Z 36017G24KT M00/M03 A3025 RMK A01 T10031030  RH  082%=      5-min Rain = 0
KQU1 111331Z 00015G23KT M00/M03 A3025 RMK A01 T10031030  RH  082%=      5-min Rain = 0
KQU1 111332Z 00017G30KT M00/M03 A3025 RMK A01 T10021029  RH  082%=      5-min Rain = 0
KQU1 111333Z 00020G34KT M00/M03 A3025 RMK A01 T10021029  RH  082%=      5-min Rain = 0
KQU1 111334Z 36021G31KT M00/M03 A3025 RMK A01 T10031030  RH  082%=      5-min Rain = 0
KQU1 111335Z 35022G28KT M00/M03 A3025 RMK A01 T10031031  RH  082%=      5-min Rain = 0
KQU1 111336Z 36018G32KT M00/M03 A3025 RMK A01 T10031030  RH  082%=      5-min Rain = 0
KQU1 111337Z 36025G36KT M00/M03 A3025 RMK A01 T10031031  RH  082%=      5-min Rain = 0
KQU1 111338Z 36023G32KT M00/M03 A3025 RMK A01 T10041032  RH  081%=      5-min Rain = 0
KQU1 111339Z 01020G29KT M00/M03 A3025 RMK A01 T10041030  RH  082%=      5-min Rain = 0
KQU1 111340Z 35022G28KT M00/M03 A3025 RMK A01 T10041031  RH  082%=      5-min Rain = 0
KQU1 111341Z 36020G31KT M00/M03 A3025 RMK A01 T10041031  RH  082%=      5-min Rain = 0
KQU1 111342Z 35019G26KT M00/M03 A3026 RMK A01 T10041032  RH  082%=      5-min Rain = 0
KQU1 111343Z 36025G35KT M01/M03 A3026 RMK A01 T10051034  RH  081%=      5-min Rain = 0
KQU1 111344Z 36027G38KT M01/M04 A3026 RMK A01 T10071036  RH  081%=      5-min Rain = 0
KQU1 111345Z 36028G39KT M01/M04 A3026 RMK A01 T10081037  RH  081%=      5-min Rain = 0
KQU1 111346Z 35027G44KT M01/M04 A3026 RMK A01 T10091038  RH  081%=      5-min Rain = 0
KQU1 111347Z 00024G39KT M01/M04 A3027 RMK A01 T10091037  RH  081%=      5-min Rain = 0
KQU1 111348Z 02023G36KT M01/M04 A3027 RMK A01 T10101039  RH  081%=      5-min Rain = 0
KQU1 111349Z 36021G31KT M01/M04 A3027 RMK A01 T10101038  RH  082%=      5-min Rain = 0
KQU1 111350Z 35023G35KT M01/M04 A3027 RMK A01 T10101038  RH  081%=      5-min Rain = 0
KQU1 111351Z 35016G28KT M01/M04 A3028 RMK A01 T10101037  RH  082%=      5-min Rain = 0
KQU1 111352Z 00017G30KT M01/M04 A3028 RMK A01 T10101037  RH  082%=      5-min Rain = 0
KQU1 111353Z 00014G24KT M01/M04 A3028 RMK A01 T10101037  RH  082%=      5-min Rain = 0
KQU1 111354Z 00017G23KT M01/M04 A3027 RMK A01 T10101036  RH  082%=      5-min Rain = 0
KQU1 111355Z 01020G26KT M01/M04 A3028 RMK A01 T10101037  RH  082%=      5-min Rain = 0
KQU1 111356Z 00016G23KT M01/M04 A3028 RMK A01 T10101037  RH  082%=      5-min Rain = 0
KQU1 111357Z 01018G32KT M01/M04 A3028 RMK A01 T10101037  RH  082%=      5-min Rain = 0
KQU1 111358Z 01020G31KT M01/M04 A3028 RMK A01 T10101038  RH  081%=      5-min Rain = 0
KQU1 111359Z 00022G32KT M01/M04 A3028 RMK A01 T10111041  RH  080%=      5-min Rain = 0
KQU1 111400Z 00021G32KT M01/M04 A3028 RMK A01 T10121041  RH  080%=      5-min Rain = 0
KQU1 111401Z 35020G30KT M01/M04 A3028 RMK A01 T10121041  RH  081%=      5-min Rain = 0
KQU1 111402Z 01018G28KT M01/M04 A3028 RMK A01 T10131042  RH  081%=      5-min Rain = 0
KQU1 111403Z 01017G26KT M01/M04 A3028 RMK A01 T10131041  RH  081%=      5-min Rain = 0
KQU1 111404Z 00024G34KT M01/M04 A3028 RMK A01 T10131042  RH  081%=      5-min Rain = 0
KQU1 111405Z 01024G31KT M01/M04 A3028 RMK A01 T10131043  RH  080%=      5-min Rain = 0
KQU1 111406Z 36026G39KT M01/M04 A3028 RMK A01 T10141044  RH  080%=      5-min Rain = 0
KQU1 111407Z 35030G39KT M02/M05 A3028 RMK A01 T10151045  RH  080%=      5-min Rain = 0
KQU1 111408Z 00029G41KT M02/M05 A3028 RMK A01 T10161046  RH  080%=      5-min Rain = 0
KQU1 111409Z 35025G33KT M02/M05 A3029 RMK A01 T10161045  RH  081%=      5-min Rain = 0
KQU1 111410Z 36024G39KT M02/M05 A3029 RMK A01 T10161045  RH  081%=      5-min Rain = 0
KQU1 111411Z 35020G31KT M02/M05 A3029 RMK A01 T10171045  RH  081%=      5-min Rain = 0
KQU1 111412Z 36021G35KT M02/M05 A3029 RMK A01 T10171045  RH  081%=      5-min Rain = 0
KQU1 111413Z 36023G38KT M02/M05 A3029 RMK A01 T10171045  RH  081%=      5-min Rain = 0
KQU1 111414Z 35025G40KT M02/M05 A3029 RMK A01 T10171046  RH  080%=      5-min Rain = 0
KQU1 111415Z 36023G32KT M02/M05 A303 RMK A01 T10171047  RH  080%=      5-min Rain = 0
KQU1 111416Z 35022G35KT M02/M05 A303 RMK A01 T10171046  RH  081%=      5-min Rain = 0
KQU1 111417Z 36017G25KT M02/M05 A303 RMK A01 T10171045  RH  081%=      5-min Rain = 0
KQU1 111418Z 00012G21KT M02/M04 A303 RMK A01 T10171044  RH  081%=      5-min Rain = 0
KQU1 111419Z 35021G30KT M02/M05 A303 RMK A01 T10171045  RH  081%=      5-min Rain = 0
KQU1 111420Z 35028G37KT M02/M05 A303 RMK A01 T10171047  RH  080%=      5-min Rain = 0
KQU1 111421Z 36022G34KT M02/M05 A303 RMK A01 T10171046  RH  081%=      5-min Rain = 0
KQU1 111422Z 00026G35KT M02/M05 A3031 RMK A01 T10171047  RH  080%=      5-min Rain = 0
KQU1 111423Z 36024G34KT M02/M05 A303 RMK A01 T10181047  RH  080%=      5-min Rain = 0
KQU1 111424Z 36016G29KT M02/M05 A3031 RMK A01 T10181046  RH  081%=      5-min Rain = 0
KQU1 111425Z 35020G27KT M02/M05 A3031 RMK A01 T10171045  RH  081%=      5-min Rain = 0
KQU1 111426Z 36027G33KT M02/M05 A3031 RMK A01 T10171047  RH  080%=      5-min Rain = 0
KQU1 111427Z 35019G29KT M02/M05 A3031 RMK A01 T10181047  RH  081%=      5-min Rain = 0
KQU1 111428Z 35022G31KT M02/M05 A3031 RMK A01 T10181046  RH  081%=      5-min Rain = 0
KQU1 111429Z 35021G27KT M02/M05 A3031 RMK A01 T10181047  RH  081%=      5-min Rain = 0
KQU1 111430Z 35017G26KT M02/M05 A3031 RMK A01 T10181046  RH  081%=      5-min Rain = 0
KQU1 111431Z 35026G39KT M02/M05 A3031 RMK A01 T10181047  RH  081%=      5-min Rain = 0
KQU1 111432Z 35021G31KT M02/M05 A3031 RMK A01 T10191047  RH  081%=      5-min Rain = 0
KQU1 111433Z 35025G36KT M02/M05 A3032 RMK A01 T10191047  RH  081%=      5-min Rain = 0
KQU1 111434Z 35027G38KT M02/M05 A3032 RMK A01 T10191047  RH  081%=      5-min Rain = 0
KQU1 111435Z 36028G42KT M02/M05 A3032 RMK A01 T10191048  RH  081%=      5-min Rain = 0
KQU1 111436Z 35027G35KT M02/M05 A3032 RMK A01 T10201049  RH  081%=      5-min Rain = 0
KQU1 111437Z 35023G36KT M02/M05 A3032 RMK A01 T10201049  RH  081%=      5-min Rain = 0
KQU1 111438Z 00028G39KT M02/M05 A3032 RMK A01 T10201050  RH  080%=      5-min Rain = 0
KQU1 111439Z 00025G34KT M02/M05 A3032 RMK A01 T10211050  RH  080%=      5-min Rain = 0
KQU1 111440Z 35031G40KT M02/M05 A3032 RMK A01 T10211051  RH  080%=      5-min Rain = 0
KQU1 111441Z 36024G37KT M02/M05 A3032 RMK A01 T10221051  RH  081%=      5-min Rain = 0
KQU1 111442Z 00029G36KT M02/M05 A3032 RMK A01 T10221052  RH  080%=      5-min Rain = 0
KQU1 111443Z 35027G35KT M02/M05 A3033 RMK A01 T10221052  RH  080%=      5-min Rain = 0
KQU1 111444Z 35024G38KT M02/M05 A3033 RMK A01 T10221051  RH  081%=      5-min Rain = 0
KQU1 111445Z 36020G33KT M02/M05 A3033 RMK A01 T10221051  RH  081%=      5-min Rain = 0
KQU1 111446Z 35021G27KT M02/M05 A3033 RMK A01 T10211050  RH  081%=      5-min Rain = 0
KQU1 111447Z 35023G30KT M02/M05 A3033 RMK A01 T10211052  RH  080%=      5-min Rain = 0
KQU1 111448Z 36022G29KT M02/M05 A3033 RMK A01 T10211052  RH  080%=      5-min Rain = 0
KQU1 111449Z 36028G39KT M02/M05 A3033 RMK A01 T10211052  RH  080%=      5-min Rain = 0
KQU1 111450Z 36027G34KT M02/M05 A3033 RMK A01 T10221053  RH  079%=      5-min Rain = 0
KQU1 111451Z 35019G32KT M02/M05 A3033 RMK A01 T10221051  RH  080%=      5-min Rain = 0
KQU1 111452Z 01025G33KT M02/M05 A3034 RMK A01 T10221052  RH  080%=      5-min Rain = 0
KQU1 111453Z 01021G30KT M02/M05 A3033 RMK A01 T10221052  RH  080%=      5-min Rain = 0
KQU1 111454Z 35017G28KT M02/M05 A3034 RMK A01 T10211051  RH  080%=      5-min Rain = 0
KQU1 111455Z 01017G26KT M02/M05 A3034 RMK A01 T10211050  RH  080%=      5-min Rain = 0
KQU1 111456Z 35017G29KT M02/M05 A3034 RMK A01 T10211052  RH  079%=      5-min Rain = 0
KQU1 111457Z 00022G32KT M02/M05 A3034 RMK A01 T10211052  RH  079%=      5-min Rain = 0
KQU1 111458Z 35019KT M02/M05 A3034 RMK A01 T10221053  RH  079%=      5-min Rain = 0
KQU1 111459Z 36025G36KT M02/M05 A3034 RMK A01 T10221053  RH  079%=      5-min Rain = 0
KQU1 111500Z 36023G32KT M02/M05 A3034 RMK A01 T10231054  RH  079%=      5-min Rain = 0
KQU1 111501Z 35025G35KT M02/M06 A3034 RMK A01 T10231055  RH  079%=      5-min Rain = 0
KQU1 111502Z 36021G36KT M02/M05 A3035 RMK A01 T10241054  RH  080%=      5-min Rain = 0
KQU1 111503Z 00026G33KT M02/M06 A3035 RMK A01 T10241056  RH  079%=      5-min Rain = 0
KQU1 111504Z 00023G31KT M02/M05 A3035 RMK A01 T10241054  RH  080%=      5-min Rain = 0
KQU1 111505Z 00021G35KT M02/M05 A3035 RMK A01 T10241052  RH  081%=      5-min Rain = 0
KQU1 111506Z 00028G34KT M02/M05 A3035 RMK A01 T10241054  RH  080%=      5-min Rain = 0
KQU1 111507Z 36027G42KT M02/M05 A3035 RMK A01 T10241054  RH  080%=      5-min Rain = 0
KQU1 111508Z 35025G31KT M02/M05 A3035 RMK A01 T10241054  RH  080%=      5-min Rain = 0
KQU1 111509Z 00027G35KT M03/M05 A3035 RMK A01 T10251054  RH  080%=      5-min Rain = 0
KQU1 111510Z 01024G33KT M02/M05 A3035 RMK A01 T10241054  RH  080%=      5-min Rain = 0
KQU1 111511Z 01023G40KT M03/M06 A3035 RMK A01 T10251055  RH  080%=      5-min Rain = 0
KQU1 111512Z 01018G29KT M03/M06 A3035 RMK A01 T10251055  RH  080%=      5-min Rain = 0
KQU1 111513Z 01016G28KT M02/M05 A3035 RMK A01 T10241054  RH  080%=      5-min Rain = 0
KQU1 111514Z 00019G33KT M03/M06 A3036 RMK A01 T10251055  RH  079%=      5-min Rain = 0
KQU1 111515Z 36024G33KT M03/M06 A3036 RMK A01 T10251056  RH  079%=      5-min Rain = 0
KQU1 111516Z 00026G33KT M03/M06 A3036 RMK A01 T10251057  RH  079%=      5-min Rain = 0
KQU1 111517Z 36019G30KT M03/M06 A3036 RMK A01 T10251056  RH  079%=      5-min Rain = 0
KQU1 111518Z 35021G29KT M03/M06 A3036 RMK A01 T10251057  RH  079%=      5-min Rain = 0
KQU1 111519Z 35017G27KT M03/M06 A3036 RMK A01 T10251056  RH  079%=      5-min Rain = 0
KQU1 111520Z 36023G31KT M03/M06 A3036 RMK A01 T10251056  RH  079%=      5-min Rain = 0
KQU1 111521Z 00020G31KT M03/M06 A3036 RMK A01 T10251057  RH  079%=      5-min Rain = 0
KQU1 111522Z 00018G24KT M03/M06 A3036 RMK A01 T10251056  RH  079%=      5-min Rain = 0
KQU1 111523Z 35021G29KT M03/M06 A3036 RMK A01 T10251056  RH  079%=      5-min Rain = 0
KQU1 111524Z 00018G34KT M03/M06 A3036 RMK A01 T10251056  RH  079%=      5-min Rain = 0
KQU1 111525Z 35024G39KT M03/M06 A3037 RMK A01 T10261058  RH  078%=      5-min Rain = 0
KQU1 111526Z 35025G35KT M03/M06 A3037 RMK A01 T10271060  RH  078%=      5-min Rain = 0
KQU1 111527Z 00024G31KT M03/M06 A3037 RMK A01 T10271059  RH  079%=      5-min Rain = 0
KQU1 111528Z 00019G24KT M03/M06 A3037 RMK A01 T10271059  RH  079%=      5-min Rain = 0
KQU1 111529Z 00021G33KT M03/M06 A3037 RMK A01 T10271059  RH  079%=      5-min Rain = 0
KQU1 111530Z 35023G35KT M03/M06 A3037 RMK A01 T10271060  RH  078%=      5-min Rain = 0
KQU1 111531Z 00026G37KT M03/M06 A3037 RMK A01 T10281061  RH  078%=      5-min Rain = 0
KQU1 111532Z 01022G33KT M03/M06 A3037 RMK A01 T10281061  RH  078%=      5-min Rain = 0
KQU1 111533Z 00024G30KT M03/M06 A3037 RMK A01 T10281063  RH  077%=      5-min Rain = 0
KQU1 111534Z 00025G34KT M03/M06 A3037 RMK A01 T10281062  RH  077%=      5-min Rain = 0
KQU1 111535Z 00024G36KT M03/M06 A3037 RMK A01 T10281063  RH  077%=      5-min Rain = 0
KQU1 111536Z 35023G32KT M03/M06 A3037 RMK A01 T10281062  RH  077%=      5-min Rain = 0
KQU1 111537Z 36023G33KT M03/M06 A3037 RMK A01 T10281063  RH  077%=      5-min Rain = 0
KQU1 111538Z 35026G33KT M03/M07 A3037 RMK A01 T10291066  RH  076%=      5-min Rain = 0
KQU1 111539Z 35022G33KT M03/M07 A3038 RMK A01 T10291065  RH  076%=      5-min Rain = 0
KQU1 111540Z 35017G30KT M03/M06 A3038 RMK A01 T10291063  RH  077%=      5-min Rain = 0
KQU1 111541Z 35020G30KT M03/M06 A3038 RMK A01 T10291063  RH  077%=      5-min Rain = 0
KQU1 111542Z 35022G29KT M03/M07 A3038 RMK A01 T10291065  RH  076%=      5-min Rain = 0
KQU1 111543Z 35021G28KT M03/M06 A3038 RMK A01 T10291064  RH  076%=      5-min Rain = 0
KQU1 111544Z 35020G30KT M03/M06 A3038 RMK A01 T10291064  RH  076%=      5-min Rain = 0
KQU1 111545Z 00018G25KT M03/M06 A3038 RMK A01 T10281064  RH  077%=      5-min Rain = 0
KQU1 111546Z 36016G25KT M03/M06 A3038 RMK A01 T10281064  RH  076%=      5-min Rain = 0
KQU1 111547Z 01022G40KT M03/M06 A3038 RMK A01 T10281064  RH  076%=      5-min Rain = 0
KQU1 111548Z 35019G27KT M03/M07 A3038 RMK A01 T10281065  RH  076%=      5-min Rain = 0
KQU1 111549Z 35019G26KT M03/M06 A3038 RMK A01 T10281064  RH  076%=      5-min Rain = 0
KQU1 111550Z 01020G33KT M03/M07 A3038 RMK A01 T10281065  RH  076%=      5-min Rain = 0
KQU1 111551Z 00022G32KT M03/M07 A3038 RMK A01 T10281065  RH  076%=      5-min Rain = 0
KQU1 111552Z 00019G29KT M03/M07 A3039 RMK A01 T10291065  RH  076%=      5-min Rain = 0
KQU1 111553Z 01015G22KT M03/M06 A3039 RMK A01 T10281064  RH  077%=      5-min Rain = 0
KQU1 111554Z 35019G28KT M03/M06 A3039 RMK A01 T10281064  RH  076%=      5-min Rain = 0
KQU1 111555Z 36019G27KT M03/M06 A3039 RMK A01 T10281064  RH  076%=      5-min Rain = 0
KQU1 111556Z 01020G27KT M03/M07 A3039 RMK A01 T10281066  RH  075%=      5-min Rain = 0
KQU1 111557Z 36016G23KT M03/M06 A3039 RMK A01 T10281064  RH  076%=      5-min Rain = 0
KQU1 111558Z 01011G18KT M03/M06 A3039 RMK A01 T10281064  RH  076%=      5-min Rain = 0
KQU1 111559Z 00016G26KT M03/M06 A304 RMK A01 T10281063  RH  076%=      5-min Rain = 0
KQU1 111600Z 35016G24KT M03/M06 A304 RMK A01 T10281064  RH  076%=      5-min Rain = 0
KQU1 111601Z 00015G25KT M03/M06 A304 RMK A01 T10281063  RH  076%=      5-min Rain = 0
KQU1 111602Z 35019G29KT M03/M06 A304 RMK A01 T10281064  RH  076%=      5-min Rain = 0
KQU1 111603Z 01019G28KT M03/M07 A304 RMK A01 T10281065  RH  076%=      5-min Rain = 0
KQU1 111604Z 35015G20KT M03/M06 A304 RMK A01 T10281064  RH  076%=      5-min Rain = 0
KQU1 111605Z 00012G20KT M03/M06 A304 RMK A01 T10271062  RH  077%=      5-min Rain = 0
KQU1 111606Z 00016G23KT M03/M06 A304 RMK A01 T10271063  RH  076%=      5-min Rain = 0
KQU1 111607Z 01017G24KT M03/M06 A304 RMK A01 T10271062  RH  077%=      5-min Rain = 0
KQU1 111608Z 36020G29KT M03/M06 A3041 RMK A01 T10271063  RH  076%=      5-min Rain = 0
KQU1 111609Z 00017G24KT M03/M06 A3041 RMK A01 T10271064  RH  076%=      5-min Rain = 0
KQU1 111610Z 36014G19KT M03/M06 A3041 RMK A01 T10271062  RH  077%=      5-min Rain = 0
KQU1 111611Z 36021G33KT M03/M06 A3041 RMK A01 T10271063  RH  076%=      5-min Rain = 0
KQU1 111612Z 36021G30KT M03/M06 A3041 RMK A01 T10271064  RH  075%=      5-min Rain = 0
KQU1 111613Z 36022G30KT M03/M06 A3041 RMK A01 T10271064  RH  076%=      5-min Rain = 0
KQU1 111614Z 35022G31KT M03/M06 A3041 RMK A01 T10271064  RH  076%=      5-min Rain = 0
KQU1 111615Z 35021G31KT M03/M06 A3041 RMK A01 T10271064  RH  076%=      5-min Rain = 0
KQU1 111616Z 00019G31KT M03/M06 A3041 RMK A01 T10271063  RH  077%=      5-min Rain = 0
KQU1 111617Z 01016G25KT M03/M06 A3041 RMK A01 T10271063  RH  076%=      5-min Rain = 0
KQU1 111618Z 36017G22KT M03/M06 A3041 RMK A01 T10271062  RH  076%=      5-min Rain = 0
KQU1 111619Z 36017G24KT M03/M06 A3042 RMK A01 T10261062  RH  076%=      5-min Rain = 0
KQU1 111620Z 36024G29KT M03/M06 A3042 RMK A01 T10271064  RH  075%=      5-min Rain = 0
KQU1 111621Z 35020G27KT M03/M06 A3042 RMK A01 T10271063  RH  076%=      5-min Rain = 0
KQU1 111622Z 00023G32KT M03/M06 A3042 RMK A01 T10271064  RH  076%=      5-min Rain = 0
KQU1 111623Z 35019G30KT M03/M06 A3042 RMK A01 T10271064  RH  076%=      5-min Rain = 0
KQU1 111624Z 35022G32KT M03/M06 A3042 RMK A01 T10271063  RH  076%=      5-min Rain = 0
KQU1 111625Z 36019G24KT M03/M06 A3042 RMK A01 T10261062  RH  076%=      5-min Rain = 0
KQU1 111626Z 36022G30KT M03/M06 A3042 RMK A01 T10261063  RH  076%=      5-min Rain = 0
KQU1 111627Z 35019G24KT M03/M06 A3042 RMK A01 T10271063  RH  076%=      5-min Rain = 0
KQU1 111628Z 35018G31KT M03/M06 A3042 RMK A01 T10261063  RH  076%=      5-min Rain = 0
KQU1 111629Z 35019G31KT M03/M06 A3042 RMK A01 T10261062  RH  076%=      5-min Rain = 0
KQU1 111630Z 36023G29KT M03/M06 A3042 RMK A01 T10261063  RH  076%=      5-min Rain = 0
KQU1 111631Z 35019G28KT M03/M07 A3042 RMK A01 T10271065  RH  075%=      5-min Rain = 0
KQU1 111632Z 01022G34KT M03/M07 A3042 RMK A01 T10271065  RH  076%=      5-min Rain = 0
KQU1 111633Z 01018G27KT M03/M07 A3042 RMK A01 T10281065  RH  076%=      5-min Rain = 0
KQU1 111634Z 36019G26KT M03/M07 A3042 RMK A01 T10281065  RH  076%=      5-min Rain = 0
KQU1 111635Z 00018G24KT M03/M06 A3042 RMK A01 T10281064  RH  076%=      5-min Rain = 0
KQU1 111636Z 00021G34KT M03/M07 A3042 RMK A01 T10281065  RH  076%=      5-min Rain = 0
KQU1 111637Z 00019G30KT M03/M07 A3042 RMK A01 T10291066  RH  075%=      5-min Rain = 0
KQU1 111638Z 36022G35KT M03/M07 A3042 RMK A01 T10291068  RH  074%=      5-min Rain = 0
KQU1 111639Z 36018G31KT M03/M07 A3043 RMK A01 T10291068  RH  075%=      5-min Rain = 0
KQU1 111640Z 36021G27KT M03/M07 A3042 RMK A01 T10301069  RH  074%=      5-min Rain = 0
KQU1 111641Z 36021G27KT M03/M07 A3043 RMK A01 T10301069  RH  074%=      5-min Rain = 0
KQU1 111642Z 35024G34KT M03/M07 A3043 RMK A01 T10301069  RH  075%=      5-min Rain = 0
KQU1 111643Z 01015G26KT M03/M07 A3043 RMK A01 T10301068  RH  075%=      5-min Rain = 0
KQU1 111644Z 01019G32KT M03/M07 A3043 RMK A01 T10301069  RH  075%=      5-min Rain = 0
KQU1 111645Z 00015G25KT M03/M07 A3043 RMK A01 T10301067  RH  075%=      5-min Rain = 0
KQU1 111646Z 36016G25KT M03/M07 A3044 RMK A01 T10301067  RH  075%=      5-min Rain = 0
KQU1 111647Z 35018G25KT M03/M07 A3044 RMK A01 T10291068  RH  075%=      5-min Rain = 0
KQU1 111648Z 35020G31KT M03/M07 A3044 RMK A01 T10301068  RH  075%=      5-min Rain = 0
KQU1 111649Z 35027G35KT M03/M07 A3044 RMK A01 T10301070  RH  074%=      5-min Rain = 0
KQU1 111650Z 35019G28KT M03/M07 A3044 RMK A01 T10311069  RH  075%=      5-min Rain = 0
KQU1 111651Z 34024G34KT M03/M07 A3044 RMK A01 T10321070  RH  075%=      5-min Rain = 0
KQU1 111652Z 35020G30KT M03/M07 A3044 RMK A01 T10321071  RH  075%=      5-min Rain = 0
KQU1 111653Z 35018G24KT M03/M07 A3045 RMK A01 T10321070  RH  075%=      5-min Rain = 0
KQU1 111654Z 35019G24KT M03/M07 A3045 RMK A01 T10331070  RH  075%=      5-min Rain = 0
KQU1 111655Z 36017G25KT M03/M07 A3045 RMK A01 T10321069  RH  076%=      5-min Rain = 0
KQU1 111656Z 35023G30KT M03/M07 A3045 RMK A01 T10331071  RH  075%=      5-min Rain = 0
KQU1 111657Z 35017G27KT M03/M07 A3045 RMK A01 T10331070  RH  075%=      5-min Rain = 0
KQU1 111658Z 00019G26KT M03/M07 A3045 RMK A01 T10321071  RH  075%=      5-min Rain = 0
KQU1 111659Z 36019G26KT M03/M07 A3045 RMK A01 T10321071  RH  075%=      5-min Rain = 0
KQU1 111700Z 35015G22KT M03/M07 A3045 RMK A01 T10311069  RH  075%=      5-min Rain = 0
KQU1 111701Z 36016G22KT M03/M07 A3045 RMK A01 T10311070  RH  075%=      5-min Rain = 0
KQU1 111702Z 00018G25KT M03/M07 A3045 RMK A01 T10311071  RH  074%=      5-min Rain = 0
KQU1 111703Z 00024G29KT M03/M07 A3045 RMK A01 T10311072  RH  074%=      5-min Rain = 0
KQU1 111704Z 35023G32KT M03/M07 A3045 RMK A01 T10321073  RH  073%=      5-min Rain = 0
KQU1 111705Z 35018G29KT M03/M07 A3045 RMK A01 T10321072  RH  074%=      5-min Rain = 0
KQU1 111706Z 00019G25KT M03/M07 A3045 RMK A01 T10321071  RH  075%=      5-min Rain = 0
KQU1 111707Z 35018G26KT M03/M07 A3045 RMK A01 T10321072  RH  074%=      5-min Rain = 0
KQU1 111708Z 35014G22KT M03/M07 A3045 RMK A01 T10321071  RH  074%=      5-min Rain = 0
KQU1 111709Z 35018G24KT M03/M07 A3045 RMK A01 T10321072  RH  074%=      5-min Rain = 0
KQU1 111710Z 35024G33KT M03/M07 A3045 RMK A01 T10321073  RH  074%=      5-min Rain = 0
KQU1 111711Z 35025G34KT M03/M07 A3045 RMK A01 T10331073  RH  074%=      5-min Rain = 0
KQU1 111712Z 35021G27KT M03/M07 A3045 RMK A01 T10331073  RH  074%=      5-min Rain = 0
KQU1 111713Z 36026G34KT M03/M08 A3045 RMK A01 T10341075  RH  073%=      5-min Rain = 0
KQU1 111714Z 35027G36KT M03/M08 A3045 RMK A01 T10341075  RH  073%=      5-min Rain = 0
KQU1 111715Z 36028G35KT M04/M08 A3045 RMK A01 T10351077  RH  073%=      5-min Rain = 0
KQU1 111716Z 35023G34KT M04/M08 A3045 RMK A01 T10351077  RH  073%=      5-min Rain = 0
KQU1 111717Z 35020G28KT M03/M08 A3045 RMK A01 T10341076  RH  073%=      5-min Rain = 0
KQU1 111718Z 35018G26KT M03/M08 A3045 RMK A01 T10341075  RH  073%=      5-min Rain = 0
KQU1 111719Z 34017G22KT M03/M08 A3045 RMK A01 T10341077  RH  072%=      5-min Rain = 0
KQU1 111720Z 35020G26KT M03/M08 A3045 RMK A01 T10341077  RH  072%=      5-min Rain = 0
KQU1 111721Z 35025G37KT M03/M08 A3046 RMK A01 T10341079  RH  071%=      5-min Rain = 0
KQU1 111722Z 00024G33KT M04/M08 A3046 RMK A01 T10351082  RH  070%=      5-min Rain = 0
KQU1 111723Z 35023G32KT M04/M08 A3046 RMK A01 T10351081  RH  070%=      5-min Rain = 0
KQU1 111724Z 36021G29KT M04/M08 A3046 RMK A01 T10351081  RH  070%=      5-min Rain = 0
KQU1 111725Z 35019G32KT M04/M08 A3046 RMK A01 T10351081  RH  070%=      5-min Rain = 0
KQU1 111726Z 00018G26KT M03/M08 A3046 RMK A01 T10341080  RH  071%=      5-min Rain = 0
KQU1 111727Z 00015G23KT M03/M08 A3045 RMK A01 T10341079  RH  071%=      5-min Rain = 0
KQU1 111728Z 36019G29KT M03/M08 A3045 RMK A01 T10341081  RH  070%=      5-min Rain = 0
KQU1 111729Z 35016G22KT M03/M08 A3045 RMK A01 T10341081  RH  070%=      5-min Rain = 0
KQU1 111730Z 35015G22KT M03/M08 A3045 RMK A01 T10331080  RH  070%=      5-min Rain = 0
KQU1 111731Z 00020G29KT M03/M08 A3045 RMK A01 T10331079  RH  070%=      5-min Rain = 0
KQU1 111732Z 35024G32KT M03/M08 A3045 RMK A01 T10331082  RH  069%=      5-min Rain = 0
KQU1 111733Z 00022G32KT M03/M08 A3045 RMK A01 T10341082  RH  069%=      5-min Rain = 0
KQU1 111734Z 35022KT M03/M08 A3046 RMK A01 T10341083  RH  069%=      5-min Rain = 0
KQU1 111735Z 35024G32KT M03/M08 A3045 RMK A01 T10341083  RH  069%=      5-min Rain = 0
KQU1 111736Z 36023G30KT M03/M08 A3045 RMK A01 T10341083  RH  069%=      5-min Rain = 0
KQU1 111737Z 36022G29KT M03/M08 A3045 RMK A01 T10341083  RH  069%=      5-min Rain = 0
KQU1 111738Z 35020G28KT M03/M08 A3046 RMK A01 T10331080  RH  070%=      5-min Rain = 0
KQU1 111739Z 35017G26KT M03/M08 A3046 RMK A01 T10331081  RH  069%=      5-min Rain = 0
KQU1 111740Z 35019G28KT M03/M08 A3046 RMK A01 T10321080  RH  070%=      5-min Rain = 0
KQU1 111741Z 36023G34KT M03/M08 A3046 RMK A01 T10321082  RH  069%=      5-min Rain = 0
KQU1 111742Z 36025G32KT M03/M09 A3046 RMK A01 T10331085  RH  067%=      5-min Rain = 0
KQU1 111743Z 35026G34KT M03/M09 A3046 RMK A01 T10331085  RH  067%=      5-min Rain = 0
KQU1 111744Z 36022G30KT M03/M09 A3046 RMK A01 T10341085  RH  068%=      5-min Rain = 0
KQU1 111745Z 34025G34KT M03/M09 A3046 RMK A01 T10341086  RH  067%=      5-min Rain = 0
KQU1 111746Z 35024G34KT M04/M09 A3046 RMK A01 T10351087  RH  067%=      5-min Rain = 0
KQU1 111747Z 36024G30KT M04/M09 A3046 RMK A01 T10351088  RH  067%=      5-min Rain = 0
KQU1 111748Z 35025G35KT M04/M09 A3046 RMK A01 T10351087  RH  067%=      5-min Rain = 0
KQU1 111749Z 34026G33KT M04/M09 A3046 RMK A01 T10351089  RH  066%=      5-min Rain = 0
KQU1 111750Z 35019G34KT M04/M09 A3046 RMK A01 T10351088  RH  067%=      5-min Rain = 0
KQU1 111751Z 01024G31KT M03/M09 A3046 RMK A01 T10341089  RH  066%=      5-min Rain = 0
KQU1 111752Z 01022G34KT M03/M09 A3046 RMK A01 T10341089  RH  066%=      5-min Rain = 0
KQU1 111753Z 00013G20KT M03/M09 A3046 RMK A01 T10341085  RH  068%=      5-min Rain = 0
KQU1 111754Z 35020G36KT M03/M09 A3046 RMK A01 T10321085  RH  067%=      5-min Rain = 0
KQU1 111755Z 35026G35KT M03/M09 A3046 RMK A01 T10321089  RH  065%=      5-min Rain = 0
KQU1 111756Z 35025G35KT M03/M09 A3046 RMK A01 T10331090  RH  064%=      5-min Rain = 0
KQU1 111757Z 00016G25KT M03/M09 A3046 RMK A01 T10331089  RH  065%=      5-min Rain = 0
KQU1 111758Z 35017G25KT M03/M09 A3046 RMK A01 T10321086  RH  066%=      5-min Rain = 0
KQU1 111759Z 36015G24KT M03/M09 A3046 RMK A01 T10311086  RH  066%=      5-min Rain = 0
KQU1 111800Z 36019G29KT M03/M09 A3046 RMK A01 T10301088  RH  064%=      5-min Rain = 0
KQU1 111801Z 00021G30KT M03/M09 A3046 RMK A01 T10301088  RH  064%=      5-min Rain = 0
KQU1 111802Z 00025G35KT M03/M09 A3046 RMK A01 T10301090  RH  063%=      5-min Rain = 0
KQU1 111803Z 36021G29KT M03/M09 A3046 RMK A01 T10311090  RH  064%=      5-min Rain = 0
KQU1 111804Z 01024G32KT M03/M09 A3046 RMK A01 T10311090  RH  064%=      5-min Rain = 0
KQU1 111805Z 35021G30KT M03/M09 A3046 RMK A01 T10311090  RH  064%=      5-min Rain = 0
KQU1 111806Z 01020G37KT M03/M09 A3046 RMK A01 T10301088  RH  064%=      5-min Rain = 0
KQU1 111807Z 36023G32KT M03/M09 A3045 RMK A01 T10291089  RH  063%=      5-min Rain = 0
KQU1 111808Z 35013G25KT M03/M09 A3046 RMK A01 T10291086  RH  064%=      5-min Rain = 0
KQU1 111809Z 36012G20KT M03/M08 A3045 RMK A01 T10271084  RH  065%=      5-min Rain = 0
KQU1 111810Z 00018G32KT M03/M09 A3045 RMK A01 T10261085  RH  064%=      5-min Rain = 0
KQU1 111811Z 36025G33KT M03/M09 A3046 RMK A01 T10271087  RH  063%=      5-min Rain = 0
KQU1 111812Z 36024G32KT M03/M09 A3046 RMK A01 T10281088  RH  063%=      5-min Rain = 0
KQU1 111813Z 36023G30KT M03/M09 A3046 RMK A01 T10291087  RH  064%=      5-min Rain = 0
KQU1 111814Z 35025G33KT M03/M09 A3046 RMK A01 T10291085  RH  065%=      5-min Rain = 0
KQU1 111815Z 34026G32KT M03/M09 A3046 RMK A01 T10291086  RH  065%=      5-min Rain = 0
KQU1 111816Z 35025G33KT M03/M09 A3046 RMK A01 T10291086  RH  065%=      5-min Rain = 0
KQU1 111817Z 36024G31KT M03/M08 A3046 RMK A01 T10291084  RH  066%=      5-min Rain = 0
KQU1 111818Z 36025G35KT M03/M09 A3046 RMK A01 T10291086  RH  065%=      5-min Rain = 0
KQU1 111819Z 35019G27KT M03/M09 A3046 RMK A01 T10291086  RH  065%=      5-min Rain = 0
KQU1 111820Z 35019G24KT M03/M09 A3046 RMK A01 T10291085  RH  065%=      5-min Rain = 0
KQU1 111821Z 36022G30KT M03/M09 A3046 RMK A01 T10291087  RH  065%=      5-min Rain = 0
KQU1 111822Z 36015G21KT M03/M08 A3047 RMK A01 T10281082  RH  066%=      5-min Rain = 0
KQU1 111823Z 35022G29KT M03/M08 A3047 RMK A01 T10261082  RH  066%=      5-min Rain = 0
KQU1 111824Z 36021G29KT M03/M08 A3047 RMK A01 T10261084  RH  065%=      5-min Rain = 0
KQU1 111825Z 35021G31KT M03/M08 A3047 RMK A01 T10261082  RH  065%=      5-min Rain = 0
KQU1 111826Z 35021G28KT M03/M08 A3047 RMK A01 T10251084  RH  064%=      5-min Rain = 0
KQU1 111827Z 35021G29KT M03/M09 A3047 RMK A01 T10271086  RH  064%=      5-min Rain = 0
KQU1 111828Z 35018G27KT M03/M09 A3047 RMK A01 T10271086  RH  064%=      5-min Rain = 0
KQU1 111829Z 34025G31KT M03/M09 A3047 RMK A01 T10281088  RH  063%=      5-min Rain = 0
KQU1 111830Z 35015G24KT M03/M09 A3047 RMK A01 T10281085  RH  065%=      5-min Rain = 0
KQU1 111831Z 36025G31KT M03/M09 A3047 RMK A01 T10281087  RH  064%=      5-min Rain = 0
KQU1 111832Z 35023G30KT M03/M09 A3047 RMK A01 T10291088  RH  063%=      5-min Rain = 0
KQU1 111833Z 00017G28KT M03/M09 A3047 RMK A01 T10291086  RH  064%=      5-min Rain = 0
KQU1 111834Z 36017G29KT M03/M09 A3047 RMK A01 T10281087  RH  064%=      5-min Rain = 0
KQU1 111835Z 36023G30KT M03/M09 A3047 RMK A01 T10281089  RH  063%=      5-min Rain = 0
KQU1 111836Z 35024G34KT M03/M09 A3047 RMK A01 T10281090  RH  062%=      5-min Rain = 0
KQU1 111837Z 01017G25KT M03/M09 A3047 RMK A01 T10281090  RH  063%=      5-min Rain = 0
KQU1 111838Z 00022G31KT M03/M09 A3047 RMK A01 T10281091  RH  062%=      5-min Rain = 0
KQU1 111839Z 35016G26KT M03/M09 A3047 RMK A01 T10271091  RH  062%=      5-min Rain = 0
KQU1 111840Z 35021G27KT M03/M09 A3047 RMK A01 T10271093  RH  060%=      5-min Rain = 0
KQU1 111841Z 01023G38KT M03/M09 A3047 RMK A01 T10281094  RH  060%=      5-min Rain = 0
KQU1 111842Z 01015G22KT M03/M09 A3047 RMK A01 T10281093  RH  061%=      5-min Rain = 0
KQU1 111843Z 36019G25KT M03/M09 A3047 RMK A01 T10281093  RH  061%=      5-min Rain = 0
KQU1 111844Z 36018G27KT M03/M09 A3047 RMK A01 T10271093  RH  060%=      5-min Rain = 0
KQU1 111845Z 36021G29KT M03/M10 A3047 RMK A01 T10281095  RH  060%=      5-min Rain = 0
KQU1 111846Z 00022G33KT M03/M10 A3047 RMK A01 T10281097  RH  059%=      5-min Rain = 0
KQU1 111847Z 36022G35KT M03/M10 A3047 RMK A01 T10281097  RH  059%=      5-min Rain = 0
KQU1 111848Z 36027G38KT M03/M10 A3046 RMK A01 T10291098  RH  059%=      5-min Rain = 0
KQU1 111849Z 35019G29KT M03/M10 A3046 RMK A01 T10291098  RH  059%=      5-min Rain = 0
KQU1 111850Z 36023G33KT M03/M10 A3046 RMK A01 T10281097  RH  059%=      5-min Rain = 0
KQU1 111851Z 01016G23KT M03/M10 A3046 RMK A01 T10281096  RH  059%=      5-min Rain = 0
KQU1 111852Z 36020G27KT M03/M10 A3047 RMK A01 T10271096  RH  059%=      5-min Rain = 0
KQU1 111853Z 35025G35KT M03/M10 A3047 RMK A01 T10271098  RH  058%=      5-min Rain = 0
KQU1 111854Z 36019G26KT M03/M10 A3046 RMK A01 T10271096  RH  059%=      5-min Rain = 0
KQU1 111855Z 36019G25KT M03/M10 A3047 RMK A01 T10261096  RH  059%=      5-min Rain = 0
KQU1 111856Z 36021G27KT M03/M10 A3046 RMK A01 T10261099  RH  057%=      5-min Rain = 0
KQU1 111857Z 36023G34KT M03/M10 A3046 RMK A01 T10271097  RH  058%=      5-min Rain = 0
KQU1 111858Z 36019G30KT M03/M10 A3046 RMK A01 T10261099  RH  058%=      5-min Rain = 0
KQU1 111859Z 01018G26KT M03/M10 A3046 RMK A01 T10261098  RH  058%=      5-min Rain = 0
KQU1 111900Z 00014G23KT M03/M10 A3046 RMK A01 T10251096  RH  058%=      5-min Rain = 0
KQU1 111901Z 01013G21KT M03/M10 A3046 RMK A01 T10251095  RH  058%=      5-min Rain = 0
KQU1 111902Z 36017G29KT M02/M10 A3046 RMK A01 T10241096  RH  058%=      5-min Rain = 0
KQU1 111903Z 00018G27KT M02/M10 A3046 RMK A01 T10241097  RH  057%=      5-min Rain = 0
KQU1 111904Z 00017G26KT M02/M10 A3046 RMK A01 T10241096  RH  058%=      5-min Rain = 0
KQU1 111905Z 36019G27KT M02/M10 A3047 RMK A01 T10241095  RH  058%=      5-min Rain = 0
KQU1 111906Z 36017KT M02/M10 A3047 RMK A01 T10241095  RH  058%=      5-min Rain = 0
KQU1 111907Z 36025G33KT M03/M10 A3046 RMK A01 T10251096  RH  058%=      5-min Rain = 0
KQU1 111908Z 36022G29KT M03/M09 A3046 RMK A01 T10261094  RH  059%=      5-min Rain = 0
KQU1 111909Z 35022G29KT M03/M10 A3046 RMK A01 T10261097  RH  058%=      5-min Rain = 0
KQU1 111910Z 35018G24KT M03/M09 A3046 RMK A01 T10261093  RH  060%=      5-min Rain = 0
KQU1 111911Z 35024G33KT M03/M10 A3046 RMK A01 T10261095  RH  059%=      5-min Rain = 0
KQU1 111912Z 35022G27KT M03/M10 A3046 RMK A01 T10271095  RH  059%=      5-min Rain = 0
KQU1 111913Z 34024G31KT M03/M09 A3046 RMK A01 T10271094  RH  060%=      5-min Rain = 0
KQU1 111914Z 34025G30KT M03/M10 A3046 RMK A01 T10271096  RH  059%=      5-min Rain = 0
KQU1 111915Z 00021G28KT M03/M10 A3046 RMK A01 T10271095  RH  060%=      5-min Rain = 0
KQU1 111916Z 35018G24KT M03/M10 A3046 RMK A01 T10271095  RH  059%=      5-min Rain = 0
KQU1 111917Z 01014G21KT M03/M09 A3047 RMK A01 T10251092  RH  060%=      5-min Rain = 0
KQU1 111918Z 00016G28KT M02/M09 A3047 RMK A01 T10241093  RH  059%=      5-min Rain = 0
KQU1 111919Z 36015G21KT M02/M09 A3046 RMK A01 T10241092  RH  059%=      5-min Rain = 0
KQU1 111920Z 01016G25KT M02/M09 A3047 RMK A01 T10221092  RH  059%=      5-min Rain = 0
KQU1 111921Z 36027G34KT M02/M10 A3047 RMK A01 T10221097  RH  057%=      5-min Rain = 0
KQU1 111922Z 36021G30KT M02/M10 A3047 RMK A01 T10231097  RH  057%=      5-min Rain = 0
KQU1 111923Z 35021G32KT M02/M10 A3047 RMK A01 T10231095  RH  058%=      5-min Rain = 0
KQU1 111924Z 00018G27KT M02/M10 A3047 RMK A01 T10221095  RH  058%=      5-min Rain = 0
KQU1 111925Z 36020G28KT M02/M10 A3047 RMK A01 T10221097  RH  057%=      5-min Rain = 0
KQU1 111926Z 35020G31KT M02/M10 A3046 RMK A01 T10221097  RH  056%=      5-min Rain = 0
KQU1 111927Z 34026G35KT M02/M10 A3046 RMK A01 T10221099  RH  056%=      5-min Rain = 0
KQU1 111928Z 36017G26KT M02/M10 A3046 RMK A01 T10231098  RH  056%=      5-min Rain = 0
KQU1 111929Z 35014G22KT M02/M10 A3046 RMK A01 T10221095  RH  057%=      5-min Rain = 0
KQU1 111930Z 00015G25KT M02/M09 A3046 RMK A01 T10201092  RH  058%=      5-min Rain = 0
KQU1 111931Z 36016G24KT M02/M09 A3046 RMK A01 T10191093  RH  057%=      5-min Rain = 0
KQU1 111932Z 36024G31KT M02/M10 A3046 RMK A01 T10191097  RH  055%=      5-min Rain = 0
KQU1 111933Z 35022G30KT M02/M10 A3047 RMK A01 T10191098  RH  055%=      5-min Rain = 0
KQU1 111934Z 35017G22KT M02/M10 A3046 RMK A01 T10191097  RH  055%=      5-min Rain = 0
KQU1 111935Z 35021G30KT M02/M10 A3047 RMK A01 T10181097  RH  055%=      5-min Rain = 0
KQU1 111936Z 00021G28KT M02/M10 A3046 RMK A01 T10191099  RH  054%=      5-min Rain = 0
KQU1 111937Z 36017G24KT M02/M10 A3047 RMK A01 T10191098  RH  055%=      5-min Rain = 0
KQU1 111938Z 35024G34KT M02/M10 A3046 RMK A01 T10201099  RH  055%=      5-min Rain = 0
KQU1 111939Z 35023G33KT M02/M10 A3046 RMK A01 T10201101  RH  054%=      5-min Rain = 0
KQU1 111940Z 00019G29KT M02/M10 A3046 RMK A01 T10201098  RH  055%=      5-min Rain = 0
KQU1 111941Z 35020G26KT M02/M10 A3046 RMK A01 T10201100  RH  054%=      5-min Rain = 0
KQU1 111942Z 35026G36KT M02/M10 A3046 RMK A01 T10201100  RH  054%=      5-min Rain = 0
KQU1 111943Z 36023G33KT M02/M10 A3046 RMK A01 T10211101  RH  054%=      5-min Rain = 0
KQU1 111944Z 35025G32KT M02/M10 A3047 RMK A01 T10211101  RH  054%=      5-min Rain = 0
KQU1 111945Z 36023G30KT M02/M10 A3046 RMK A01 T10211102  RH  054%=      5-min Rain = 0
KQU1 111946Z 00022KT M02/M10 A3046 RMK A01 T10211101  RH  054%=      5-min Rain = 0
KQU1 111947Z 01015G23KT M02/M10 A3046 RMK A01 T10211100  RH  055%=      5-min Rain = 0
KQU1 111948Z 00023G31KT M02/M10 A3047 RMK A01 T10211101  RH  054%=      5-min Rain = 0
KQU1 111949Z 35021KT M02/M10 A3047 RMK A01 T10211099  RH  055%=      5-min Rain = 0
KQU1 111950Z 35016G33KT M02/M10 A3046 RMK A01 T10201099  RH  055%=      5-min Rain = 0
KQU1 111951Z 00019G27KT M02/M10 A3047 RMK A01 T10201099  RH  055%=      5-min Rain = 0
KQU1 111952Z 35026G32KT M02/M10 A3047 RMK A01 T10201102  RH  054%=      5-min Rain = 0
KQU1 111953Z 35026G34KT M02/M10 A3047 RMK A01 T10211103  RH  053%=      5-min Rain = 0
KQU1 111954Z 35019G30KT M02/M10 A3047 RMK A01 T10201100  RH  054%=      5-min Rain = 0
KQU1 111955Z 35021G30KT M02/M10 A3047 RMK A01 T10201101  RH  054%=      5-min Rain = 0
KQU1 111956Z 36014G22KT M02/M10 A3047 RMK A01 T10191099  RH  055%=      5-min Rain = 0
KQU1 111957Z 36021G31KT M02/M10 A3046 RMK A01 T10191100  RH  054%=      5-min Rain = 0
KQU1 111958Z 36018G23KT M02/M10 A3046 RMK A01 T10191100  RH  054%=      5-min Rain = 0
KQU1 111959Z 00022G31KT M02/M10 A3046 RMK A01 T10191101  RH  054%=      5-min Rain = 0
KQU1 112000Z 01023G30KT M02/M10 A3046 RMK A01 T10191102  RH  053%=      5-min Rain = 0
KQU1 112001Z 00016G24KT M02/M10 A3046 RMK A01 T10201101  RH  054%=      5-min Rain = 0
KQU1 112002Z 01014G21KT M02/M10 A3046 RMK A01 T10191099  RH  054%=      5-min Rain = 0
KQU1 112003Z 01016G23KT M02/M10 A3046 RMK A01 T10181098  RH  054%=      5-min Rain = 0
KQU1 112004Z 35016G29KT M02/M10 A3046 RMK A01 T10181099  RH  054%=      5-min Rain = 0
KQU1 112005Z 00019G26KT M02/M10 A3046 RMK A01 T10171099  RH  054%=      5-min Rain = 0
KQU1 112006Z 36015G20KT M02/M10 A3046 RMK A01 T10171099  RH  054%=      5-min Rain = 0
KQU1 112007Z 00011G18KT M02/M10 A3046 RMK A01 T10161097  RH  054%=      5-min Rain = 0
KQU1 112008Z 00016G26KT M02/M10 A3046 RMK A01 T10151098  RH  053%=      5-min Rain = 0
KQU1 112009Z 36019G29KT M02/M10 A3046 RMK A01 T10151098  RH  053%=      5-min Rain = 0
KQU1 112010Z 00021G35KT M02/M10 A3046 RMK A01 T10161102  RH  052%=      5-min Rain = 0
KQU1 112011Z 36022G32KT M02/M10 A3046 RMK A01 T10171104  RH  052%=      5-min Rain = 0
KQU1 112012Z 35022G32KT M02/M10 A3046 RMK A01 T10181103  RH  052%=      5-min Rain = 0
KQU1 112013Z 36023G32KT M02/M10 A3046 RMK A01 T10191104  RH  052%=      5-min Rain = 0
KQU1 112014Z 35020G31KT M02/M10 A3046 RMK A01 T10191104  RH  052%=      5-min Rain = 0
KQU1 112015Z 36024G34KT M02/M11 A3046 RMK A01 T10191105  RH  052%=      5-min Rain = 0
KQU1 112016Z 36015G22KT M02/M10 A3046 RMK A01 T10191101  RH  053%=      5-min Rain = 0
KQU1 112017Z 35018KT M02/M10 A3046 RMK A01 T10181102  RH  053%=      5-min Rain = 0
KQU1 112018Z 35019G30KT M02/M10 A3046 RMK A01 T10171100  RH  053%=      5-min Rain = 0
KQU1 112019Z 36021G27KT M02/M10 A3046 RMK A01 T10171102  RH  052%=      5-min Rain = 0
KQU1 112020Z 36027G36KT M02/M10 A3046 RMK A01 T10171104  RH  052%=      5-min Rain = 0
KQU1 112021Z 35021G28KT M02/M10 A3046 RMK A01 T10171102  RH  052%=      5-min Rain = 0
KQU1 112022Z 36016G31KT M02/M10 A3046 RMK A01 T10171102  RH  052%=      5-min Rain = 0
KQU1 112023Z 01017G29KT M02/M10 A3046 RMK A01 T10171102  RH  052%=      5-min Rain = 0
KQU1 112024Z 01015G28KT M02/M10 A3046 RMK A01 T10171102  RH  052%=      5-min Rain = 0
KQU1 112025Z 01015G30KT M02/M10 A3046 RMK A01 T10171102  RH  052%=      5-min Rain = 0
KQU1 112026Z 00023G29KT M02/M10 A3046 RMK A01 T10171103  RH  052%=      5-min Rain = 0
KQU1 112027Z 35023G32KT M02/M10 A3046 RMK A01 T10171103  RH  052%=      5-min Rain = 0
KQU1 112028Z 35021G29KT M02/M10 A3046 RMK A01 T10171102  RH  052%=      5-min Rain = 0
KQU1 112029Z 00016G26KT M02/M10 A3046 RMK A01 T10171103  RH  052%=      5-min Rain = 0
KQU1 112030Z 01016G30KT M02/M10 A3046 RMK A01 T10171103  RH  052%=      5-min Rain = 0
KQU1 112031Z 00017G23KT M02/M10 A3046 RMK A01 T10171103  RH  052%=      5-min Rain = 0
KQU1 112032Z 36016G24KT M02/M10 A3046 RMK A01 T10171102  RH  052%=      5-min Rain = 0
KQU1 112033Z 35018G25KT M02/M10 A3046 RMK A01 T10161101  RH  052%=      5-min Rain = 0
KQU1 112034Z 35020G26KT M02/M10 A3046 RMK A01 T10161103  RH  051%=      5-min Rain = 0
KQU1 112035Z 35017G27KT M02/M10 A3047 RMK A01 T10161101  RH  052%=      5-min Rain = 0
KQU1 112036Z 36018G26KT M02/M10 A3047 RMK A01 T10161103  RH  051%=      5-min Rain = 0
KQU1 112037Z 36014G23KT M02/M10 A3047 RMK A01 T10161102  RH  052%=      5-min Rain = 0
KQU1 112038Z 35019G28KT M02/M10 A3047 RMK A01 T10151103  RH  051%=      5-min Rain = 0
KQU1 112039Z 01021G27KT M02/M10 A3047 RMK A01 T10151103  RH  051%=      5-min Rain = 0
KQU1 112040Z 36022G27KT M02/M11 A3047 RMK A01 T10151105  RH  051%=      5-min Rain = 0
KQU1 112041Z 36024G30KT M02/M11 A3047 RMK A01 T10161105  RH  051%=      5-min Rain = 0
KQU1 112042Z 36024G30KT M02/M11 A3047 RMK A01 T10171106  RH  051%=      5-min Rain = 0
KQU1 112043Z 36018G23KT M02/M10 A3048 RMK A01 T10171103  RH  052%=      5-min Rain = 0
KQU1 112044Z 00020G28KT M02/M10 A3048 RMK A01 T10161103  RH  051%=      5-min Rain = 0
KQU1 112045Z 00016G31KT M02/M10 A3048 RMK A01 T10161103  RH  052%=      5-min Rain = 0
KQU1 112046Z 00016G27KT M02/M11 A3048 RMK A01 T10161105  RH  051%=      5-min Rain = 0
KQU1 112047Z 36016G25KT M02/M10 A3047 RMK A01 T10161102  RH  052%=      5-min Rain = 0
KQU1 112048Z 00014G21KT M02/M10 A3047 RMK A01 T10151101  RH  052%=      5-min Rain = 0
KQU1 112049Z 01014G24KT M02/M10 A3047 RMK A01 T10151101  RH  052%=      5-min Rain = 0
KQU1 112050Z 01011G23KT M01/M10 A3047 RMK A01 T10141102  RH  051%=      5-min Rain = 0
KQU1 112051Z 00009G17KT M01/M10 A3048 RMK A01 T10131098  RH  052%=      5-min Rain = 0
KQU1 112052Z 36016G26KT M01/M10 A3048 RMK A01 T10111099  RH  051%=      5-min Rain = 0
KQU1 112053Z 35019G27KT M01/M10 A3047 RMK A01 T10121104  RH  050%=      5-min Rain = 0
KQU1 112054Z 00012G19KT M01/M10 A3048 RMK A01 T10121101  RH  051%=      5-min Rain = 0
KQU1 112055Z 36012G18KT M01/M10 A3048 RMK A01 T10111102  RH  050%=      5-min Rain = 0
KQU1 112056Z 02008G13KT M01/M10 A3048 RMK A01 T10111099  RH  051%=      5-min Rain = 0
KQU1 112057Z 36008G14KT M01/M10 A3048 RMK A01 T10101098  RH  051%=      5-min Rain = 0
KQU1 112058Z 35017G27KT M01/M10 A3048 RMK A01 T10091100  RH  050%=      5-min Rain = 0
KQU1 112059Z 36021G32KT M01/M10 A3048 RMK A01 T10101104  RH  049%=      5-min Rain = 0
KQU1 112100Z 35019G28KT M01/M10 A3048 RMK A01 T10121104  RH  050%=      5-min Rain = 0
KQU1 112101Z 35018G29KT M01/M10 A3048 RMK A01 T10121102  RH  051%=      5-min Rain = 0
KQU1 112102Z 35017G31KT M01/M10 A3048 RMK A01 T10121102  RH  050%=      5-min Rain = 0
KQU1 112103Z 36015G25KT M01/M10 A3048 RMK A01 T10111098  RH  051%=      5-min Rain = 0
KQU1 112104Z 36022G30KT M01/M10 A3048 RMK A01 T10111102  RH  050%=      5-min Rain = 0
KQU1 112105Z 35018G26KT M01/M10 A3048 RMK A01 T10111103  RH  049%=      5-min Rain = 0
KQU1 112106Z 36021G28KT M01/M10 A3048 RMK A01 T10111102  RH  050%=      5-min Rain = 0
KQU1 112107Z 36019G26KT M01/M10 A3048 RMK A01 T10111101  RH  050%=      5-min Rain = 0
KQU1 112108Z 35012G19KT M01/M10 A3048 RMK A01 T10101097  RH  051%=      5-min Rain = 0
KQU1 112109Z 35016G27KT M01/M10 A3048 RMK A01 T10091101  RH  050%=      5-min Rain = 0
KQU1 112110Z 36014KT M01/M10 A3048 RMK A01 T10091099  RH  050%=      5-min Rain = 0
KQU1 112111Z 36010G17KT M01/M10 A3048 RMK A01 T10091099  RH  050%=      5-min Rain = 0
KQU1 112112Z 34012G20KT M01/M10 A3048 RMK A01 T10081098  RH  051%=      5-min Rain = 0
KQU1 112113Z 36012KT M01/M10 A3048 RMK A01 T10081099  RH  050%=      5-min Rain = 0
KQU1 112114Z 36017G22KT M01/M10 A3048 RMK A01 T10081101  RH  049%=      5-min Rain = 0
KQU1 112115Z 35015G24KT M01/M10 A3048 RMK A01 T10081102  RH  049%=      5-min Rain = 0
KQU1 112116Z 00016G23KT M01/M10 A3048 RMK A01 T10081101  RH  049%=      5-min Rain = 0
KQU1 112117Z 00017G27KT M01/M10 A3048 RMK A01 T10081102  RH  049%=      5-min Rain = 0
KQU1 112118Z 00017G26KT M01/M10 A3048 RMK A01 T10081102  RH  049%=      5-min Rain = 0
KQU1 112119Z 01015G25KT M01/M10 A3048 RMK A01 T10091103  RH  049%=      5-min Rain = 0
KQU1 112120Z 01016G23KT M01/M10 A3048 RMK A01 T10091102  RH  049%=      5-min Rain = 0
KQU1 112121Z 00014G27KT M01/M10 A3048 RMK A01 T10091102  RH  049%=      5-min Rain = 0
KQU1 112122Z 00015G28KT M01/M10 A3048 RMK A01 T10091103  RH  049%=      5-min Rain = 0
KQU1 112123Z 02018G25KT M01/M10 A3048 RMK A01 T10091102  RH  049%=      5-min Rain = 0
KQU1 112124Z 00012G18KT M01/M10 A3048 RMK A01 T10091102  RH  049%=      5-min Rain = 0
KQU1 112125Z 00019G26KT M01/M10 A3048 RMK A01 T10091103  RH  049%=      5-min Rain = 0
KQU1 112126Z 01018G24KT M01/M10 A3048 RMK A01 T10091103  RH  049%=      5-min Rain = 0
KQU1 112127Z 01016G25KT M01/M10 A3048 RMK A01 T10091103  RH  049%=      5-min Rain = 0
KQU1 112128Z 01014G19KT M01/M10 A3048 RMK A01 T10091104  RH  049%=      5-min Rain = 0
KQU1 112129Z 00013G24KT M01/M10 A3048 RMK A01 T10091103  RH  049%=      5-min Rain = 0
KQU1 112130Z 01017G22KT M01/M10 A3048 RMK A01 T10091103  RH  049%=      5-min Rain = 0
KQU1 112131Z 01013G22KT M01/M10 A3048 RMK A01 T10081101  RH  049%=      5-min Rain = 0
KQU1 112132Z 01011G20KT M01/M10 A3048 RMK A01 T10081102  RH  049%=      5-min Rain = 0
KQU1 112133Z 02012G23KT M01/M10 A3048 RMK A01 T10071101  RH  049%=      5-min Rain = 0
KQU1 112134Z 00013G19KT M01/M10 A3048 RMK A01 T10071103  RH  049%=      5-min Rain = 0
KQU1 112135Z 01012G18KT M01/M10 A3048 RMK A01 T10071101  RH  049%=      5-min Rain = 0
KQU1 112136Z 00011G17KT M01/M10 A3048 RMK A01 T10061098  RH  050%=      5-min Rain = 0
KQU1 112137Z 01011G16KT M01/M10 A3048 RMK A01 T10051098  RH  049%=      5-min Rain = 0
KQU1 112138Z 01013G22KT M01/M10 A3048 RMK A01 T10061100  RH  049%=      5-min Rain = 0
KQU1 112139Z 02011G20KT M01/M10 A3048 RMK A01 T10061100  RH  049%=      5-min Rain = 0
KQU1 112140Z 02010G16KT M01/M10 A3048 RMK A01 T10061096  RH  050%=      5-min Rain = 0
KQU1 112141Z 01013G19KT M01/M10 A3048 RMK A01 T10051098  RH  049%=      5-min Rain = 0
KQU1 112142Z 02011G18KT M00/M10 A3048 RMK A01 T10041098  RH  049%=      5-min Rain = 0
KQU1 112143Z 02010G16KT M00/M10 A3049 RMK A01 T10031097  RH  049%=      5-min Rain = 0
KQU1 112144Z 00015G26KT M00/M10 A3049 RMK A01 T10021098  RH  048%=      5-min Rain = 0
KQU1 112145Z 02020G35KT M00/M10 A3049 RMK A01 T10021101  RH  047%=      5-min Rain = 0
KQU1 112146Z 01020G31KT M00/M10 A3049 RMK A01 T10021101  RH  047%=      5-min Rain = 0
KQU1 112147Z 01018G27KT M00/M10 A3049 RMK A01 T10021102  RH  047%=      5-min Rain = 0
KQU1 112148Z 01013G21KT M00/M10 A3049 RMK A01 T10021098  RH  048%=      5-min Rain = 0
KQU1 112149Z 35016G26KT M00/M10 A3049 RMK A01 T10011102  RH  047%=      5-min Rain = 0
KQU1 112150Z 02009G17KT M00/M10 A3049 RMK A01 T10011099  RH  048%=      5-min Rain = 0
KQU1 112151Z 01012G19KT 00/10 A3049 RMK A01 T00-00-99  RH  047%=      5-min Rain = 0
KQU1 112152Z 00013G22KT 00/10 A3049 RMK A01 T00-00-101  RH  047%=      5-min Rain = 0
KQU1 112153Z 00014KT 00/10 A3049 RMK A01 T00-00-101  RH  047%=      5-min Rain = 0
KQU1 112154Z 35022KT M00/M10 A3049 RMK A01 T10011104  RH  046%=      5-min Rain = 0
KQU1 112155Z 00019G27KT M00/M10 A3049 RMK A01 T10011103  RH  046%=      5-min Rain = 0
KQU1 112156Z 00021G26KT M00/M10 A3049 RMK A01 T10011104  RH  046%=      5-min Rain = 0
KQU1 112157Z 36019G28KT M00/M10 A3049 RMK A01 T10021104  RH  046%=      5-min Rain = 0
KQU1 112158Z 00018G30KT M00/M11 A3049 RMK A01 T10021105  RH  046%=      5-min Rain = 0
KQU1 112159Z 00016G25KT M00/M11 A3049 RMK A01 T10021105  RH  046%=      5-min Rain = 0
KQU1 112200Z 01015G22KT M00/M10 A3049 RMK A01 T10021104  RH  046%=      5-min Rain = 0
KQU1 112201Z 00013G20KT M00/M10 A3049 RMK A01 T10021104  RH  046%=      5-min Rain = 0
KQU1 112202Z 00012G21KT M00/M10 A3049 RMK A01 T10011103  RH  046%=      5-min Rain = 0
KQU1 112203Z 00017G24KT M00/M10 A3049 RMK A01 T10011103  RH  046%=      5-min Rain = 0
KQU1 112204Z 36016G24KT M00/M11 A3049 RMK A01 T10011105  RH  045%=      5-min Rain = 0
KQU1 112205Z 36016G22KT M00/M11 A3049 RMK A01 T10011105  RH  046%=      5-min Rain = 0
KQU1 112206Z 00012G18KT M00/M10 A3049 RMK A01 T10011103  RH  046%=      5-min Rain = 0
KQU1 112207Z 00016G22KT M00/M10 A3049 RMK A01 T10011103  RH  046%=      5-min Rain = 0
KQU1 112208Z 01015G28KT M00/M11 A3049 RMK A01 T10011105  RH  045%=      5-min Rain = 0
KQU1 112209Z 01017G24KT M00/M11 A3049 RMK A01 T10011105  RH  045%=      5-min Rain = 0
KQU1 112210Z 02014G23KT M00/M10 A3049 RMK A01 T10011103  RH  046%=      5-min Rain = 0
KQU1 112211Z 02015G24KT M00/M10 A3049 RMK A01 T10021104  RH  046%=      5-min Rain = 0
KQU1 112212Z 02018G28KT M00/M11 A3049 RMK A01 T10021106  RH  045%=      5-min Rain = 0
KQU1 112213Z 01015G22KT M00/M11 A3049 RMK A01 T10021105  RH  046%=      5-min Rain = 0
KQU1 112214Z 36012G19KT M00/M10 A3049 RMK A01 T10021103  RH  047%=      5-min Rain = 0
KQU1 112215Z 02015G21KT M00/M10 A3049 RMK A01 T10021103  RH  046%=      5-min Rain = 0
KQU1 112216Z 01013G21KT M00/M11 A3049 RMK A01 T10021106  RH  045%=      5-min Rain = 0
KQU1 112217Z 00015G23KT M00/M11 A3049 RMK A01 T10021106  RH  045%=      5-min Rain = 0
KQU1 112218Z 36018G27KT M00/M11 A3049 RMK A01 T10021107  RH  045%=      5-min Rain = 0
KQU1 112219Z 36013G18KT M00/M10 A3049 RMK A01 T10021102  RH  047%=      5-min Rain = 0
KQU1 112220Z 01014G23KT M00/M11 A3049 RMK A01 T10021105  RH  046%=      5-min Rain = 0
KQU1 112221Z 01019G26KT M00/M11 A3049 RMK A01 T10021107  RH  045%=      5-min Rain = 0
KQU1 112222Z 00014G26KT M00/M10 A3049 RMK A01 T10011103  RH  046%=      5-min Rain = 0
KQU1 112223Z 36016G26KT M00/M11 A3049 RMK A01 T10011105  RH  045%=      5-min Rain = 0
KQU1 112224Z 35018G25KT M00/M11 A305 RMK A01 T10011105  RH  045%=      5-min Rain = 0
KQU1 112225Z 36017G22KT 00/10 A3049 RMK A01 T00-00-104  RH  045%=      5-min Rain = 0
KQU1 112226Z 01017G26KT 00/10 A3049 RMK A01 T00-00-104  RH  046%=      5-min Rain = 0
KQU1 112227Z 00017G23KT 00/10 A305 RMK A01 T00-00-104  RH  046%=      5-min Rain = 0
KQU1 112228Z 00019G28KT 00/11 A305 RMK A01 T00000-105  RH  045%=      5-min Rain = 0
KQU1 112229Z 00014G23KT 00/10 A305 RMK A01 T00000-102  RH  046%=      5-min Rain = 0
KQU1 112230Z 00021G26KT 00/M10 A305 RMK A01 T00011104  RH  045%=      5-min Rain = 0
KQU1 112231Z 35020G28KT 00/11 A305 RMK A01 T00000-106  RH  045%=      5-min Rain = 0
KQU1 112232Z 36019G27KT 00/10 A305 RMK A01 T00000-104  RH  045%=      5-min Rain = 0
KQU1 112233Z 35018G24KT 00/11 A305 RMK A01 T00-00-106  RH  045%=      5-min Rain = 0
KQU1 112234Z 00016G24KT 00/10 A305 RMK A01 T00-00-104  RH  046%=      5-min Rain = 0
KQU1 112235Z 00014G19KT 00/11 A305 RMK A01 T00-00-105  RH  045%=      5-min Rain = 0
KQU1 112236Z 01008G14KT 00/10 A305 RMK A01 T00-00-102  RH  046%=      5-min Rain = 0
KQU1 112237Z 01011G19KT 00/10 A3051 RMK A01 T00000-101  RH  046%=      5-min Rain = 0
KQU1 112238Z 00013G21KT 00/10 A3051 RMK A01 T00000-103  RH  046%=      5-min Rain = 0
KQU1 112239Z 02016G24KT M00/M11 A3051 RMK A01 T10011105  RH  045%=      5-min Rain = 0
KQU1 112240Z 00016G25KT M00/M11 A3051 RMK A01 T10011105  RH  046%=      5-min Rain = 0
KQU1 112241Z 00011G22KT M00/M10 A3051 RMK A01 T10021104  RH  046%=      5-min Rain = 0
KQU1 112242Z 01014G26KT M00/M10 A3051 RMK A01 T10021100  RH  047%=      5-min Rain = 0
KQU1 112243Z 02013G24KT M00/M10 A3051 RMK A01 T10021104  RH  046%=      5-min Rain = 0
KQU1 112244Z 36013G24KT M00/M10 A3051 RMK A01 T10021104  RH  046%=      5-min Rain = 0
KQU1 112245Z 01014G20KT M00/M10 A3051 RMK A01 T10021104  RH  046%=      5-min Rain = 0
KQU1 112246Z 36013G20KT M00/M10 A3051 RMK A01 T10021104  RH  046%=      5-min Rain = 0
KQU1 112247Z 01015G22KT M00/M11 A3051 RMK A01 T10021105  RH  046%=      5-min Rain = 0
KQU1 112248Z 01011G19KT M00/M10 A3051 RMK A01 T10021103  RH  047%=      5-min Rain = 0
KQU1 112249Z 01016G21KT M00/M10 A3052 RMK A01 T10021104  RH  046%=      5-min Rain = 0
KQU1 112250Z 00013G23KT M00/M11 A3052 RMK A01 T10031105  RH  046%=      5-min Rain = 0
KQU1 112251Z 35016G24KT M00/M11 A3052 RMK A01 T10031105  RH  046%=      5-min Rain = 0
KQU1 112252Z 01012G22KT M00/M10 A3052 RMK A01 T10031104  RH  046%=      5-min Rain = 0
KQU1 112253Z 01013G19KT M00/M10 A3052 RMK A01 T10031104  RH  047%=      5-min Rain = 0
KQU1 112254Z 01009G15KT M00/M10 A3053 RMK A01 T10031102  RH  047%=      5-min Rain = 0
KQU1 112255Z 02011G20KT M00/M10 A3053 RMK A01 T10031102  RH  047%=      5-min Rain = 0
KQU1 112256Z 00013G18KT M00/M10 A3053 RMK A01 T10031104  RH  046%=      5-min Rain = 0
KQU1 112257Z 36009G16KT M00/M10 A3053 RMK A01 T10031104  RH  046%=      5-min Rain = 0
KQU1 112258Z 36012G18KT M00/M10 A3053 RMK A01 T10031103  RH  047%=      5-min Rain = 0
KQU1 112259Z 35017G22KT M00/M10 A3053 RMK A01 T10031104  RH  046%=      5-min Rain = 0
KQU1 112300Z 36010G19KT M00/M10 A3053 RMK A01 T10031103  RH  047%=      5-min Rain = 0
KQU1 112301Z 00007G13KT M00/M10 A3052 RMK A01 T10021101  RH  048%=      5-min Rain = 0
KQU1 112302Z 01010G16KT M00/M10 A3052 RMK A01 T10021103  RH  047%=      5-min Rain = 0
KQU1 112303Z 02010G21KT M00/M10 A3052 RMK A01 T10021104  RH  046%=      5-min Rain = 0
KQU1 112304Z 01015G22KT M00/M11 A3052 RMK A01 T10031105  RH  046%=      5-min Rain = 0
KQU1 112305Z 02014G19KT M00/M10 A3052 RMK A01 T10031103  RH  047%=      5-min Rain = 0
KQU1 112306Z 01008G14KT M00/M10 A3053 RMK A01 T10031102  RH  047%=      5-min Rain = 0
KQU1 112307Z 01011G16KT M00/M10 A3053 RMK A01 T10031101  RH  047%=      5-min Rain = 0
KQU1 112308Z 02011G17KT M00/M10 A3053 RMK A01 T10031103  RH  047%=      5-min Rain = 0
KQU1 112309Z 36010G19KT M00/M10 A3053 RMK A01 T10041103  RH  047%=      5-min Rain = 0
KQU1 112310Z 01012G22KT M00/M11 A3053 RMK A01 T10041105  RH  046%=      5-min Rain = 0
KQU1 112311Z 01012G17KT M00/M11 A3053 RMK A01 T10041107  RH  046%=      5-min Rain = 0
KQU1 112312Z 01011G21KT M01/M11 A3053 RMK A01 T10051107  RH  046%=      5-min Rain = 0
KQU1 112313Z 00012G21KT M01/M11 A3053 RMK A01 T10051107  RH  046%=      5-min Rain = 0
KQU1 112314Z 00009G20KT M01/M11 A3053 RMK A01 T10051105  RH  047%=      5-min Rain = 0
KQU1 112315Z 01011G20KT M01/M11 A3053 RMK A01 T10051105  RH  047%=      5-min Rain = 0
KQU1 112316Z 02011G16KT M01/M10 A3053 RMK A01 T10051103  RH  048%=      5-min Rain = 0
KQU1 112317Z 02009G15KT M01/M10 A3053 RMK A01 T10051103  RH  047%=      5-min Rain = 0
KQU1 112318Z 01008G17KT M01/M10 A3053 RMK A01 T10051103  RH  047%=      5-min Rain = 0
KQU1 112319Z 02009G20KT M01/M10 A3054 RMK A01 T10051103  RH  047%=      5-min Rain = 0
KQU1 112320Z 01012G18KT M01/M11 A3054 RMK A01 T10051107  RH  046%=      5-min Rain = 0
KQU1 112321Z 02008KT M01/M10 A3054 RMK A01 T10051104  RH  047%=      5-min Rain = 0
KQU1 112322Z 01010G17KT M01/M10 A3054 RMK A01 T10051102  RH  048%=      5-min Rain = 0
KQU1 112323Z 01014G20KT M01/M11 A3054 RMK A01 T10061106  RH  047%=      5-min Rain = 0
KQU1 112324Z 01009G14KT M01/M11 A3054 RMK A01 T10061107  RH  047%=      5-min Rain = 0
KQU1 112325Z 02010G15KT M01/M10 A3054 RMK A01 T10061104  RH  047%=      5-min Rain = 0
KQU1 112326Z 01010G19KT M01/M11 A3054 RMK A01 T10071106  RH  047%=      5-min Rain = 0
KQU1 112327Z 01013G19KT M01/M11 A3054 RMK A01 T10071108  RH  046%=      5-min Rain = 0
KQU1 112328Z 01014G21KT M01/M11 A3054 RMK A01 T10081109  RH  046%=      5-min Rain = 0
KQU1 112329Z 02012G20KT M01/M11 A3054 RMK A01 T10081108  RH  047%=      5-min Rain = 0
KQU1 112330Z 01010G21KT M01/M11 A3054 RMK A01 T10081109  RH  046%=      5-min Rain = 0
KQU1 112331Z 00011KT M01/M11 A3055 RMK A01 T10081108  RH  047%=      5-min Rain = 0
KQU1 112332Z 01009G14KT M01/M11 A3055 RMK A01 T10091107  RH  047%=      5-min Rain = 0
KQU1 112333Z 00007G13KT M01/M11 A3055 RMK A01 T10091107  RH  047%=      5-min Rain = 0
KQU1 112334Z 03006KT M01/M11 A3055 RMK A01 T10091105  RH  048%=      5-min Rain = 0
KQU1 112335Z 00007G15KT M01/M11 A3055 RMK A01 T10091106  RH  048%=      5-min Rain = 0
KQU1 112336Z 01007G15KT M01/M10 A3055 RMK A01 T10091104  RH  049%=      5-min Rain = 0
KQU1 112337Z 02008G17KT M01/M11 A3055 RMK A01 T10091105  RH  048%=      5-min Rain = 0
KQU1 112338Z 03009G16KT M01/M11 A3055 RMK A01 T10091106  RH  048%=      5-min Rain = 0
KQU1 112339Z 01011G16KT M01/M11 A3055 RMK A01 T10101106  RH  048%=      5-min Rain = 0
KQU1 112340Z 02013G18KT M01/M11 A3055 RMK A01 T10101107  RH  048%=      5-min Rain = 0
KQU1 112341Z 01008KT M01/M11 A3055 RMK A01 T10101107  RH  048%=      5-min Rain = 0
KQU1 112342Z 01008G14KT M01/M11 A3055 RMK A01 T10111107  RH  048%=      5-min Rain = 0
KQU1 112343Z 36010G15KT M01/M11 A3055 RMK A01 T10111108  RH  048%=      5-min Rain = 0
KQU1 112344Z 01011G17KT M01/M11 A3056 RMK A01 T10111109  RH  048%=      5-min Rain = 0
KQU1 112345Z 35012G20KT M01/M11 A3055 RMK A01 T10121107  RH  048%=      5-min Rain = 0
KQU1 112346Z 36012KT M01/M11 A3055 RMK A01 T10121106  RH  049%=      5-min Rain = 0
KQU1 112347Z 36015G21KT M01/M11 A3056 RMK A01 T10121109  RH  048%=      5-min Rain = 0
KQU1 112348Z 01017G22KT M01/M11 A3055 RMK A01 T10121109  RH  048%=      5-min Rain = 0
KQU1 112349Z 36014G19KT M01/M11 A3055 RMK A01 T10121111  RH  047%=      5-min Rain = 0
KQU1 112350Z 00012G19KT M01/M11 A3055 RMK A01 T10121109  RH  048%=      5-min Rain = 0
KQU1 112351Z 00013G20KT M01/M11 A3055 RMK A01 T10121109  RH  048%=      5-min Rain = 0
KQU1 112352Z 36015G21KT M01/M11 A3055 RMK A01 T10131111  RH  047%=      5-min Rain = 0
KQU1 112353Z 01015G22KT M01/M11 A3055 RMK A01 T10131113  RH  047%=      5-min Rain = 0
KQU1 112354Z 36017G23KT M01/M12 A3055 RMK A01 T10131117  RH  045%=      5-min Rain = 0
KQU1 112355Z 36013G22KT M01/M12 A3055 RMK A01 T10141116  RH  046%=      5-min Rain = 0
KQU1 112356Z 36012G18KT M01/M12 A3055 RMK A01 T10141115  RH  046%=      5-min Rain = 0
KQU1 112357Z 01016G24KT M01/M12 A3055 RMK A01 T10141115  RH  046%=      5-min Rain = 0
KQU1 112358Z 00010G18KT M01/M12 A3055 RMK A01 T10141115  RH  046%=      5-min Rain = 0
KQU1 112359Z 00013G18KT M02/M12 A3055 RMK A01 T10151116  RH  046%=      5-min Rain = 0
KQU1 120000Z 36011G20KT M02/M12 A3056 RMK A01 T10151116  RH  046%=      5-min Rain = 0
KQU1 120001Z 01010G18KT M02/M12 A3056 RMK A01 T10151116  RH  046%=      5-min Rain = 0
KQU1 120002Z 01010G18KT M02/M12 A3056 RMK A01 T10151115  RH  047%=      5-min Rain = 0
KQU1 120003Z 01011G16KT M02/M12 A3056 RMK A01 T10161118  RH  046%=      5-min Rain = 0
KQU1 120004Z 01012G18KT M02/M12 A3056 RMK A01 T10161117  RH  046%=      5-min Rain = 0
KQU1 120005Z 00014G19KT M02/M12 A3056 RMK A01 T10161120  RH  045%=      5-min Rain = 0
KQU1 120006Z 00013G19KT M02/M12 A3056 RMK A01 T10171119  RH  045%=      5-min Rain = 0
KQU1 120007Z 00013G20KT M02/M12 A3056 RMK A01 T10171117  RH  046%=      5-min Rain = 0
KQU1 120008Z 01009G14KT M02/M12 A3057 RMK A01 T10171119  RH  046%=      5-min Rain = 0
KQU1 120009Z 01012G18KT M02/M12 A3057 RMK A01 T10171119  RH  046%=      5-min Rain = 0
KQU1 120010Z 01012G21KT M02/M12 A3057 RMK A01 T10171121  RH  045%=      5-min Rain = 0
KQU1 120011Z 00011G16KT M02/M12 A3057 RMK A01 T10181120  RH  046%=      5-min Rain = 0
KQU1 120012Z 01010G22KT M02/M12 A3057 RMK A01 T10181120  RH  045%=      5-min Rain = 0
KQU1 120013Z 01011G18KT M02/M12 A3057 RMK A01 T10181121  RH  045%=      5-min Rain = 0
KQU1 120014Z 00010G18KT M02/M12 A3057 RMK A01 T10181120  RH  046%=      5-min Rain = 0
KQU1 120015Z 00009G17KT M02/M12 A3057 RMK A01 T10181119  RH  046%=      5-min Rain = 0
KQU1 120016Z 00011G17KT M02/M12 A3057 RMK A01 T10191119  RH  046%=      5-min Rain = 0
KQU1 120017Z 01011G16KT M02/M12 A3057 RMK A01 T10191120  RH  046%=      5-min Rain = 0
KQU1 120018Z 02007KT M02/M12 A3057 RMK A01 T10191116  RH  047%=      5-min Rain = 0
KQU1 120019Z 00007G13KT M02/M12 A3057 RMK A01 T10191117  RH  047%=      5-min Rain = 0
KQU1 120020Z 01008G14KT M02/M12 A3057 RMK A01 T10191119  RH  046%=      5-min Rain = 0
KQU1 120021Z 01007KT M02/M12 A3057 RMK A01 T10191117  RH  047%=      5-min Rain = 0
KQU1 120022Z 02008G14KT M02/M12 A3057 RMK A01 T10201117  RH  047%=      5-min Rain = 0
KQU1 120023Z 00010G15KT M02/M12 A3057 RMK A01 T10201119  RH  047%=      5-min Rain = 0
KQU1 120024Z 00010KT M02/M12 A3058 RMK A01 T10201120  RH  047%=      5-min Rain = 0
KQU1 120025Z 36009G15KT M02/M12 A3058 RMK A01 T10201118  RH  047%=      5-min Rain = 0
KQU1 120026Z 01007G12KT M02/M12 A3058 RMK A01 T10201118  RH  047%=      5-min Rain = 0
KQU1 120027Z 01008KT M02/M12 A3058 RMK A01 T10211118  RH  047%=      5-min Rain = 0
KQU1 120028Z 00011G16KT M02/M12 A3058 RMK A01 T10211117  RH  048%=      5-min Rain = 0
KQU1 120029Z 00010KT M02/M12 A3057 RMK A01 T10211119  RH  047%=      5-min Rain = 0
KQU1 120030Z 01008G14KT M02/M12 A3057 RMK A01 T10211120  RH  047%=      5-min Rain = 0
KQU1 120031Z 00005KT M02/M12 A3057 RMK A01 T10211118  RH  048%=      5-min Rain = 0
KQU1 120032Z 36008G17KT M02/M12 A3057 RMK A01 T10211116  RH  048%=      5-min Rain = 0
KQU1 120033Z 00012G17KT M02/M12 A3057 RMK A01 T10221119  RH  047%=      5-min Rain = 0
KQU1 120034Z 36008G16KT M02/M12 A3057 RMK A01 T10221119  RH  047%=      5-min Rain = 0
KQU1 120035Z 01010KT M02/M12 A3057 RMK A01 T10221119  RH  048%=      5-min Rain = 0
KQU1 120036Z 01009KT M02/M12 A3057 RMK A01 T10221119  RH  047%=      5-min Rain = 0
KQU1 120037Z 00004G10KT M02/M12 A3057 RMK A01 T10231117  RH  048%=      5-min Rain = 0
KQU1 120038Z 01006G11KT M02/M12 A3057 RMK A01 T10231117  RH  048%=      5-min Rain = 0
KQU1 120039Z 36007KT M02/M12 A3057 RMK A01 T10231116  RH  049%=      5-min Rain = 0
KQU1 120040Z 01007KT M02/M12 A3057 RMK A01 T10231116  RH  049%=      5-min Rain = 0
KQU1 120041Z 01008G13KT M02/M12 A3057 RMK A01 T10231118  RH  048%=      5-min Rain = 0
KQU1 120042Z 36006KT M02/M12 A3057 RMK A01 T10231117  RH  048%=      5-min Rain = 0
KQU1 120043Z 01010KT M02/M12 A3057 RMK A01 T10241118  RH  048%=      5-min Rain = 0
KQU1 120044Z 00008G13KT M02/M12 A3057 RMK A01 T10241118  RH  048%=      5-min Rain = 0
KQU1 120045Z 01007G13KT M02/M12 A3058 RMK A01 T10241116  RH  049%=      5-min Rain = 0
KQU1 120046Z 36008KT M02/M12 A3058 RMK A01 T10241116  RH  049%=      5-min Rain = 0
KQU1 120047Z 00007KT M02/M12 A3058 RMK A01 T10241116  RH  049%=      5-min Rain = 0
KQU1 120048Z 00012KT M02/M12 A3058 RMK A01 T10241118  RH  048%=      5-min Rain = 0
KQU1 120049Z 00008G14KT M02/M12 A3058 RMK A01 T10241119  RH  048%=      5-min Rain = 0
KQU1 120050Z 00007KT M02/M12 A3058 RMK A01 T10241118  RH  048%=      5-min Rain = 0
KQU1 120051Z 00008KT M02/M12 A3058 RMK A01 T10241118  RH  049%=      5-min Rain = 0
KQU1 120052Z 00009KT M02/M12 A3058 RMK A01 T10241118  RH  049%=      5-min Rain = 0
KQU1 120053Z 00008KT M02/M12 A3058 RMK A01 T10241117  RH  049%=      5-min Rain = 0
KQU1 120054Z 01008G14KT M02/M12 A3058 RMK A01 T10241118  RH  048%=      5-min Rain = 0
KQU1 120055Z 00009KT M03/M12 A3058 RMK A01 T10251118  RH  049%=      5-min Rain = 0
KQU1 120056Z 01006G12KT M03/M12 A3058 RMK A01 T10251117  RH  049%=      5-min Rain = 0
KQU1 120057Z 00010G17KT M03/M12 A3058 RMK A01 T10251116  RH  049%=      5-min Rain = 0
KQU1 120058Z 00009G14KT M03/M12 A3058 RMK A01 T10251118  RH  049%=      5-min Rain = 0
KQU1 120059Z 36007G12KT M03/M12 A3058 RMK A01 T10251119  RH  048%=      5-min Rain = 0
KQU1 120100Z 00008KT M03/M12 A3058 RMK A01 T10251117  RH  049%=      5-min Rain = 0
KQU1 120101Z 36008G17KT M03/M12 A3058 RMK A01 T10251117  RH  049%=      5-min Rain = 0
KQU1 120102Z 00010G16KT M03/M12 A3058 RMK A01 T10251119  RH  048%=      5-min Rain = 0
KQU1 120103Z 36009G16KT M03/M12 A3058 RMK A01 T10251117  RH  049%=      5-min Rain = 0
KQU1 120104Z 01008G13KT M03/M12 A3058 RMK A01 T10251116  RH  050%=      5-min Rain = 0
KQU1 120105Z 00011G17KT M03/M12 A3059 RMK A01 T10251118  RH  049%=      5-min Rain = 0
KQU1 120106Z 00006KT M03/M12 A3059 RMK A01 T10251116  RH  050%=      5-min Rain = 0
KQU1 120107Z 36009G15KT M03/M11 A3059 RMK A01 T10251114  RH  051%=      5-min Rain = 0
KQU1 120108Z 00009G14KT M03/M12 A3059 RMK A01 T10251118  RH  049%=      5-min Rain = 0
KQU1 120109Z 36012G17KT M03/M12 A3059 RMK A01 T10251117  RH  049%=      5-min Rain = 0
KQU1 120110Z 01010KT M03/M12 A3059 RMK A01 T10251118  RH  049%=      5-min Rain = 0
KQU1 120111Z 00010G16KT M03/M12 A3059 RMK A01 T10251117  RH  049%=      5-min Rain = 0
KQU1 120112Z 00011KT M03/M12 A3059 RMK A01 T10251118  RH  049%=      5-min Rain = 0
KQU1 120113Z 01009G14KT M03/M12 A3059 RMK A01 T10251117  RH  049%=      5-min Rain = 0
KQU1 120114Z 00009G14KT M03/M12 A3059 RMK A01 T10251118  RH  049%=      5-min Rain = 0
KQU1 120115Z 01009G15KT M03/M12 A3059 RMK A01 T10251117  RH  049%=      5-min Rain = 0
KQU1 120116Z 01009G18KT M03/M12 A3059 RMK A01 T10251119  RH  049%=      5-min Rain = 0
KQU1 120117Z 01008KT M03/M12 A306 RMK A01 T10251116  RH  049%=      5-min Rain = 0
KQU1 120118Z 01009G14KT M03/M12 A306 RMK A01 T10251117  RH  049%=      5-min Rain = 0
KQU1 120119Z 01011G16KT M03/M12 A306 RMK A01 T10251118  RH  049%=      5-min Rain = 0
KQU1 120120Z 00010G15KT M03/M12 A3059 RMK A01 T10251118  RH  049%=      5-min Rain = 0
KQU1 120121Z 01011G17KT M03/M12 A3059 RMK A01 T10251117  RH  049%=      5-min Rain = 0
KQU1 120122Z 36011G17KT M03/M12 A3059 RMK A01 T10251118  RH  049%=      5-min Rain = 0
KQU1 120123Z 01008KT M03/M12 A3059 RMK A01 T10251117  RH  049%=      5-min Rain = 0
KQU1 120124Z 36010KT M03/M12 A306 RMK A01 T10251117  RH  050%=      5-min Rain = 0
KQU1 120125Z 36010KT M03/M12 A306 RMK A01 T10251116  RH  050%=      5-min Rain = 0
KQU1 120126Z 35013KT M03/M12 A306 RMK A01 T10261119  RH  049%=      5-min Rain = 0
KQU1 120127Z 01011G16KT M03/M12 A306 RMK A01 T10261117  RH  049%=      5-min Rain = 0
KQU1 120128Z 35012G21KT M03/M12 A306 RMK A01 T10261117  RH  049%=      5-min Rain = 0
KQU1 120129Z 35014G22KT M03/M12 A306 RMK A01 T10261122  RH  048%=      5-min Rain = 0
KQU1 120130Z 36012G17KT M03/M12 A306 RMK A01 T10261121  RH  048%=      5-min Rain = 0
KQU1 120131Z 01012G17KT M03/M12 A306 RMK A01 T10261121  RH  048%=      5-min Rain = 0
KQU1 120132Z 00011KT M03/M12 A306 RMK A01 T10261123  RH  047%=      5-min Rain = 0
KQU1 120133Z 35012G18KT M03/M12 A306 RMK A01 T10261123  RH  047%=      5-min Rain = 0
KQU1 120134Z 00011KT M03/M12 A306 RMK A01 T10261124  RH  047%=      5-min Rain = 0
KQU1 120135Z 36010G15KT M03/M12 A306 RMK A01 T10271124  RH  047%=      5-min Rain = 0
KQU1 120136Z 36013G19KT M03/M13 A306 RMK A01 T10271126  RH  046%=      5-min Rain = 0
KQU1 120137Z 36009KT M03/M13 A306 RMK A01 T10271125  RH  047%=      5-min Rain = 0
KQU1 120138Z 01008G16KT M03/M12 A306 RMK A01 T10271124  RH  047%=      5-min Rain = 0
KQU1 120139Z 01012KT M03/M13 A306 RMK A01 T10281125  RH  047%=      5-min Rain = 0
KQU1 120140Z 00011KT M03/M13 A306 RMK A01 T10281125  RH  047%=      5-min Rain = 0
KQU1 120141Z 01010KT M03/M13 A306 RMK A01 T10281125  RH  047%=      5-min Rain = 0
KQU1 120142Z 01008G15KT M03/M13 A306 RMK A01 T10291127  RH  047%=      5-min Rain = 0
KQU1 120143Z 01009G14KT M03/M13 A306 RMK A01 T10291127  RH  047%=      5-min Rain = 0
KQU1 120144Z 36010KT M03/M13 A306 RMK A01 T10291125  RH  048%=      5-min Rain = 0
KQU1 120145Z 35006KT M03/M12 A306 RMK A01 T10291122  RH  049%=      5-min Rain = 0
KQU1 120146Z 36010KT M03/M13 A306 RMK A01 T10291125  RH  048%=      5-min Rain = 0
KQU1 120147Z 00009G16KT M03/M13 A306 RMK A01 T10291127  RH  047%=      5-min Rain = 0
KQU1 120148Z 36010KT M03/M13 A306 RMK A01 T10301126  RH  047%=      5-min Rain = 0
KQU1 120149Z 01006G12KT M03/M13 A306 RMK A01 T10301125  RH  048%=      5-min Rain = 0
KQU1 120150Z 36007KT M03/M13 A306 RMK A01 T10301126  RH  048%=      5-min Rain = 0
KQU1 120151Z 01007G12KT M03/M12 A306 RMK A01 T10301124  RH  048%=      5-min Rain = 0
KQU1 120152Z 00008G13KT M03/M13 A306 RMK A01 T10311125  RH  048%=      5-min Rain = 0
KQU1 120153Z 01010KT M03/M13 A306 RMK A01 T10311128  RH  047%=      5-min Rain = 0
KQU1 120154Z 36009G14KT M03/M13 A306 RMK A01 T10311129  RH  047%=      5-min Rain = 0
KQU1 120155Z 00005KT M03/M13 A3061 RMK A01 T10311127  RH  048%=      5-min Rain = 0
KQU1 120156Z 00007KT M03/M13 A3061 RMK A01 T10321127  RH  048%=      5-min Rain = 0
KQU1 120157Z 01005KT M03/M13 A3061 RMK A01 T10321125  RH  049%=      5-min Rain = 0
KQU1 120158Z 01006G11KT M03/M12 A3061 RMK A01 T10321124  RH  049%=      5-min Rain = 0
KQU1 120159Z 00008KT M03/M13 A3061 RMK A01 T10321127  RH  048%=      5-min Rain = 0
KQU1 120200Z 01009KT M03/M13 A3061 RMK A01 T10321129  RH  047%=      5-min Rain = 0
KQU1 120201Z 01008G13KT M03/M13 A3061 RMK A01 T10321129  RH  047%=      5-min Rain = 0
KQU1 120202Z 00010KT M03/M13 A3061 RMK A01 T10331129  RH  047%=      5-min Rain = 0
KQU1 120203Z 01008G13KT M03/M13 A3061 RMK A01 T10331129  RH  047%=      5-min Rain = 0
KQU1 120204Z 36009KT M03/M13 A3061 RMK A01 T10331128  RH  048%=      5-min Rain = 0
KQU1 120205Z 36008KT M03/M13 A3061 RMK A01 T10331128  RH  048%=      5-min Rain = 0
KQU1 120206Z 01006G11KT M03/M13 A3061 RMK A01 T10331127  RH  048%=      5-min Rain = 0
KQU1 120207Z 00011G16KT M03/M13 A3061 RMK A01 T10331128  RH  048%=      5-min Rain = 0
KQU1 120208Z 01008G13KT M03/M13 A3061 RMK A01 T10331129  RH  048%=      5-min Rain = 0
KQU1 120209Z 35010KT M03/M13 A3061 RMK A01 T10331128  RH  048%=      5-min Rain = 0
KQU1 120210Z 36010KT M03/M13 A3061 RMK A01 T10331130  RH  047%=      5-min Rain = 0
KQU1 120211Z 00009KT M03/M13 A3061 RMK A01 T10341128  RH  048%=      5-min Rain = 0
KQU1 120212Z 36010KT M03/M13 A3061 RMK A01 T10341127  RH  048%=      5-min Rain = 0
KQU1 120213Z 36008G13KT M03/M13 A3061 RMK A01 T10341129  RH  048%=      5-min Rain = 0
KQU1 120214Z 35008KT M03/M13 A3061 RMK A01 T10341128  RH  048%=      5-min Rain = 0
KQU1 120215Z 36009KT M03/M13 A3061 RMK A01 T10341125  RH  049%=      5-min Rain = 0
KQU1 120216Z 00008G15KT M03/M13 A3061 RMK A01 T10341125  RH  049%=      5-min Rain = 0
KQU1 120217Z 36008KT M03/M13 A3061 RMK A01 T10341127  RH  049%=      5-min Rain = 0
KQU1 120218Z 35013G19KT M03/M13 A3061 RMK A01 T10341129  RH  048%=      5-min Rain = 0
KQU1 120219Z 01012G17KT M03/M13 A3061 RMK A01 T10341130  RH  047%=      5-min Rain = 0
KQU1 120220Z 36009G14KT M03/M13 A3061 RMK A01 T10341129  RH  048%=      5-min Rain = 0
KQU1 120221Z 35011G17KT M03/M13 A3061 RMK A01 T10341129  RH  048%=      5-min Rain = 0
KQU1 120222Z 36010G15KT M03/M13 A3061 RMK A01 T10341128  RH  048%=      5-min Rain = 0
KQU1 120223Z 36009G18KT M03/M13 A3061 RMK A01 T10341130  RH  047%=      5-min Rain = 0
KQU1 120224Z 35009G17KT M03/M13 A3061 RMK A01 T10341129  RH  048%=      5-min Rain = 0
KQU1 120225Z 36009KT M03/M13 A3062 RMK A01 T10341130  RH  048%=      5-min Rain = 0
KQU1 120226Z 36009KT M03/M13 A3062 RMK A01 T10341127  RH  049%=      5-min Rain = 0
KQU1 120227Z 00008G13KT M03/M13 A3062 RMK A01 T10341127  RH  049%=      5-min Rain = 0
KQU1 120228Z 36012KT M03/M13 A3062 RMK A01 T10341129  RH  048%=      5-min Rain = 0
KQU1 120229Z 00008KT M03/M13 A3062 RMK A01 T10341129  RH  048%=      5-min Rain = 0
KQU1 120230Z 00011KT M03/M13 A3062 RMK A01 T10341129  RH  048%=      5-min Rain = 0
KQU1 120231Z 00012KT M03/M13 A3062 RMK A01 T10341132  RH  047%=      5-min Rain = 0
KQU1 120232Z 36008KT M03/M13 A3062 RMK A01 T10341131  RH  047%=      5-min Rain = 0
KQU1 120233Z 36011G16KT M03/M13 A3062 RMK A01 T10341129  RH  047%=      5-min Rain = 0
KQU1 120234Z 00009KT M03/M13 A3062 RMK A01 T10341129  RH  048%=      5-min Rain = 0
KQU1 120235Z 00009KT M03/M13 A3062 RMK A01 T10341128  RH  048%=      5-min Rain = 0
KQU1 120236Z 00009G15KT M03/M13 A3062 RMK A01 T10331128  RH  048%=      5-min Rain = 0
KQU1 120237Z 00011G16KT M03/M13 A3062 RMK A01 T10341131  RH  047%=      5-min Rain = 0
KQU1 120238Z 00010G15KT M03/M13 A3062 RMK A01 T10341131  RH  047%=      5-min Rain = 0
KQU1 120239Z 01012KT M03/M13 A3062 RMK A01 T10341133  RH  046%=      5-min Rain = 0
KQU1 120240Z 01007G14KT M03/M13 A3062 RMK A01 T10341130  RH  047%=      5-min Rain = 0
KQU1 120241Z 35007KT M03/M13 A3062 RMK A01 T10341129  RH  048%=      5-min Rain = 0
KQU1 120242Z 00010G15KT M03/M13 A3062 RMK A01 T10341131  RH  047%=      5-min Rain = 0
KQU1 120243Z 01009KT M03/M13 A3062 RMK A01 T10341131  RH  047%=      5-min Rain = 0
KQU1 120244Z 01006G13KT M03/M13 A3062 RMK A01 T10341130  RH  048%=      5-min Rain = 0
KQU1 120245Z 00010G15KT M04/M13 A3062 RMK A01 T10351130  RH  047%=      5-min Rain = 0
KQU1 120246Z 00008G13KT M04/M13 A3062 RMK A01 T10351132  RH  047%=      5-min Rain = 0
KQU1 120247Z 01008KT M04/M13 A3062 RMK A01 T10351131  RH  047%=      5-min Rain = 0
KQU1 120248Z 01009G15KT M04/M13 A3062 RMK A01 T10351131  RH  047%=      5-min Rain = 0
KQU1 120249Z 00009G14KT M04/M13 A3062 RMK A01 T10351131  RH  047%=      5-min Rain = 0
KQU1 120250Z 01010G17KT M04/M13 A3062 RMK A01 T10351131  RH  048%=      5-min Rain = 0
KQU1 120251Z 01009G14KT M04/M13 A3062 RMK A01 T10351132  RH  047%=      5-min Rain = 0
KQU1 120252Z 36011KT M04/M13 A3062 RMK A01 T10361132  RH  047%=      5-min Rain = 0
KQU1 120253Z 36008G14KT M04/M13 A3062 RMK A01 T10361132  RH  047%=      5-min Rain = 0
KQU1 120254Z 36009G14KT M04/M13 A3062 RMK A01 T10361129  RH  048%=      5-min Rain = 0
KQU1 120255Z 00009KT M04/M13 A3062 RMK A01 T10361129  RH  048%=      5-min Rain = 0
KQU1 120256Z 01008G13KT M04/M13 A3062 RMK A01 T10361129  RH  049%=      5-min Rain = 0
KQU1 120257Z 02006KT M04/M13 A3062 RMK A01 T10361129  RH  048%=      5-min Rain = 0
KQU1 120258Z 01007G12KT M04/M13 A3062 RMK A01 T10361129  RH  048%=      5-min Rain = 0
KQU1 120259Z 01008G13KT M04/M13 A3062 RMK A01 T10361130  RH  048%=      5-min Rain = 0
KQU1 120300Z 01008KT M04/M13 A3062 RMK A01 T10361128  RH  049%=      5-min Rain = 0
KQU1 120301Z 01008G13KT M04/M13 A3062 RMK A01 T10361130  RH  048%=      5-min Rain = 0
KQU1 120302Z 00007G12KT M04/M13 A3062 RMK A01 T10361131  RH  048%=      5-min Rain = 0
KQU1 120303Z 35011KT M04/M13 A3062 RMK A01 T10371131  RH  048%=      5-min Rain = 0
KQU1 120304Z 01007G14KT M04/M13 A3062 RMK A01 T10371130  RH  048%=      5-min Rain = 0
KQU1 120305Z 01008G13KT M04/M13 A3061 RMK A01 T10371130  RH  049%=      5-min Rain = 0
KQU1 120306Z 02010G18KT M04/M13 A3061 RMK A01 T10371133  RH  047%=      5-min Rain = 0
KQU1 120307Z 00009G15KT M04/M13 A3061 RMK A01 T10371131  RH  048%=      5-min Rain = 0
KQU1 120308Z 01007G12KT M04/M13 A3061 RMK A01 T10371131  RH  048%=      5-min Rain = 0
KQU1 120309Z 02009G16KT M04/M13 A3061 RMK A01 T10371131  RH  048%=      5-min Rain = 0
KQU1 120310Z 00008G13KT M04/M13 A3061 RMK A01 T10371131  RH  048%=      5-min Rain = 0
KQU1 120311Z 00007G12KT M04/M13 A3061 RMK A01 T10381131  RH  048%=      5-min Rain = 0
KQU1 120312Z 01007KT M04/M13 A3061 RMK A01 T10381130  RH  049%=      5-min Rain = 0
KQU1 120313Z 01008G14KT M04/M13 A3061 RMK A01 T10381131  RH  048%=      5-min Rain = 0
KQU1 120314Z 01009G14KT M04/M13 A3061 RMK A01 T10391131  RH  049%=      5-min Rain = 0
KQU1 120315Z 01008KT M04/M13 A3061 RMK A01 T10391130  RH  049%=      5-min Rain = 0
KQU1 120316Z 35005G10KT M04/M13 A3061 RMK A01 T10391130  RH  049%=      5-min Rain = 0
KQU1 120317Z 01009G14KT M04/M13 A3061 RMK A01 T10391130  RH  049%=      5-min Rain = 0
KQU1 120318Z 00008KT M04/M13 A3061 RMK A01 T10391130  RH  049%=      5-min Rain = 0
KQU1 120319Z 00007KT M04/M13 A3061 RMK A01 T10391129  RH  050%=      5-min Rain = 0
KQU1 120320Z 01010G16KT M04/M13 A3061 RMK A01 T10401130  RH  049%=      5-min Rain = 0
KQU1 120321Z 01008KT M04/M13 A3061 RMK A01 T10401130  RH  050%=      5-min Rain = 0
KQU1 120322Z 36008KT M04/M13 A3061 RMK A01 T10401129  RH  050%=      5-min Rain = 0
KQU1 120323Z 01004G9KT M04/M13 A3061 RMK A01 T10401128  RH  050%=      5-min Rain = 0
KQU1 120324Z 01006G11KT M04/M13 A3062 RMK A01 T10401127  RH  051%=      5-min Rain = 0
KQU1 120325Z 01009G16KT M04/M13 A3062 RMK A01 T10401129  RH  050%=      5-min Rain = 0
KQU1 120326Z 01009G14KT M04/M13 A3062 RMK A01 T10411130  RH  050%=      5-min Rain = 0
KQU1 120327Z 01008KT M04/M13 A3062 RMK A01 T10411130  RH  050%=      5-min Rain = 0
KQU1 120328Z 01007KT M04/M13 A3062 RMK A01 T10411131  RH  050%=      5-min Rain = 0
KQU1 120329Z 00008KT M04/M13 A3062 RMK A01 T10421129  RH  051%=      5-min Rain = 0
KQU1 120330Z 01008G15KT M04/M13 A3062 RMK A01 T10421130  RH  050%=      5-min Rain = 0
KQU1 120331Z 00009KT M04/M13 A3062 RMK A01 T10421128  RH  051%=      5-min Rain = 0
KQU1 120332Z 00009G14KT M04/M13 A3062 RMK A01 T10421131  RH  050%=      5-min Rain = 0
KQU1 120333Z 00008G14KT M04/M13 A3062 RMK A01 T10421131  RH  050%=      5-min Rain = 0
KQU1 120334Z 36009KT M04/M13 A3062 RMK A01 T10421130  RH  050%=      5-min Rain = 0
KQU1 120335Z 01008G15KT M04/M13 A3062 RMK A01 T10421129  RH  051%=      5-min Rain = 0
KQU1 120336Z 00011KT M04/M13 A3062 RMK A01 T10411131  RH  050%=      5-min Rain = 0
KQU1 120337Z 01014KT M04/M14 A3062 RMK A01 T10421136  RH  048%=      5-min Rain = 0
KQU1 120338Z 01009G14KT M04/M14 A3062 RMK A01 T10421135  RH  048%=      5-min Rain = 0
KQU1 120339Z 00011G18KT M04/M13 A3063 RMK A01 T10421134  RH  049%=      5-min Rain = 0
KQU1 120340Z 35009G15KT M04/M13 A3063 RMK A01 T10421134  RH  049%=      5-min Rain = 0
KQU1 120341Z 00007G14KT M04/M13 A3063 RMK A01 T10411132  RH  049%=      5-min Rain = 0
KQU1 120342Z 01010G15KT M04/M13 A3063 RMK A01 T10411134  RH  048%=      5-min Rain = 0
KQU1 120343Z 36009KT M04/M13 A3063 RMK A01 T10421133  RH  049%=      5-min Rain = 0
KQU1 120344Z 00007G12KT M04/M13 A3063 RMK A01 T10421133  RH  049%=      5-min Rain = 0
KQU1 120345Z 00011G16KT M04/M13 A3063 RMK A01 T10421132  RH  049%=      5-min Rain = 0
KQU1 120346Z 01009G17KT M04/M14 A3063 RMK A01 T10421135  RH  048%=      5-min Rain = 0
KQU1 120347Z 00008G16KT M04/M14 A3063 RMK A01 T10421135  RH  048%=      5-min Rain = 0
KQU1 120348Z 01008G15KT M04/M13 A3063 RMK A01 T10421134  RH  049%=      5-min Rain = 0
KQU1 120349Z 01011KT M04/M13 A3063 RMK A01 T10421134  RH  049%=      5-min Rain = 0
KQU1 120350Z 01008G14KT M04/M14 A3063 RMK A01 T10421135  RH  049%=      5-min Rain = 0
KQU1 120351Z 01010G15KT M04/M14 A3063 RMK A01 T10421135  RH  048%=      5-min Rain = 0
KQU1 120352Z 01009G14KT M04/M14 A3063 RMK A01 T10421135  RH  048%=      5-min Rain = 0
KQU1 120353Z 01010G18KT M04/M14 A3063 RMK A01 T10421135  RH  049%=      5-min Rain = 0
KQU1 120354Z 01010KT M04/M14 A3063 RMK A01 T10431136  RH  048%=      5-min Rain = 0
KQU1 120355Z 01009G16KT M04/M14 A3063 RMK A01 T10431135  RH  049%=      5-min Rain = 0
KQU1 120356Z 01008G15KT M04/M14 A3063 RMK A01 T10431136  RH  048%=      5-min Rain = 0
KQU1 120357Z 01008G13KT M04/M13 A3063 RMK A01 T10431133  RH  049%=      5-min Rain = 0
KQU1 120358Z 00008G15KT M04/M13 A3063 RMK A01 T10431134  RH  049%=      5-min Rain = 0
KQU1 120359Z 01009G16KT M04/M13 A3063 RMK A01 T10431133  RH  049%=      5-min Rain = 0
KQU1 120400Z 00010KT M04/M14 A3063 RMK A01 T10431136  RH  049%=      5-min Rain = 0
KQU1 120401Z 35008G13KT M04/M14 A3063 RMK A01 T10441135  RH  049%=      5-min Rain = 0
KQU1 120402Z 36008KT M04/M13 A3063 RMK A01 T10441134  RH  049%=      5-min Rain = 0
KQU1 120403Z 01010G17KT M04/M13 A3063 RMK A01 T10441134  RH  049%=      5-min Rain = 0
KQU1 120404Z 36007KT M04/M13 A3063 RMK A01 T10441133  RH  050%=      5-min Rain = 0
KQU1 120405Z 01011G18KT M04/M13 A3063 RMK A01 T10441133  RH  050%=      5-min Rain = 0
KQU1 120406Z 36011G16KT M04/M13 A3063 RMK A01 T10441134  RH  049%=      5-min Rain = 0
KQU1 120407Z 02008KT M04/M13 A3063 RMK A01 T10441134  RH  049%=      5-min Rain = 0
KQU1 120408Z 00008G13KT M04/M13 A3063 RMK A01 T10441134  RH  050%=      5-min Rain = 0
KQU1 120409Z 01010G16KT M04/M13 A3063 RMK A01 T10441134  RH  050%=      5-min Rain = 0
KQU1 120410Z 01012G19KT M04/M14 A3063 RMK A01 T10441136  RH  049%=      5-min Rain = 0
KQU1 120411Z 00010G16KT M04/M13 A3063 RMK A01 T10441133  RH  050%=      5-min Rain = 0
KQU1 120412Z 01013G21KT M04/M14 A3064 RMK A01 T10441136  RH  049%=      5-min Rain = 0
KQU1 120413Z 35011KT M04/M14 A3063 RMK A01 T10441137  RH  048%=      5-min Rain = 0
KQU1 120414Z 01011G16KT M04/M14 A3063 RMK A01 T10441136  RH  049%=      5-min Rain = 0
KQU1 120415Z 00008KT M04/M14 A3064 RMK A01 T10441135  RH  049%=      5-min Rain = 0
KQU1 120416Z 36014G25KT M05/M14 A3063 RMK A01 T10451138  RH  048%=      5-min Rain = 0
KQU1 120417Z 01014G19KT M05/M14 A3063 RMK A01 T10451138  RH  048%=      5-min Rain = 0
KQU1 120418Z 01014G22KT M05/M14 A3063 RMK A01 T10451140  RH  047%=      5-min Rain = 0
KQU1 120419Z 01013KT M05/M14 A3063 RMK A01 T10451139  RH  048%=      5-min Rain = 0
KQU1 120420Z 01012G18KT M05/M14 A3063 RMK A01 T10451138  RH  048%=      5-min Rain = 0
KQU1 120421Z 01014G20KT M05/M14 A3063 RMK A01 T10451138  RH  048%=      5-min Rain = 0
KQU1 120422Z 01016G21KT M05/M14 A3063 RMK A01 T10451139  RH  048%=      5-min Rain = 0
KQU1 120423Z 01010G18KT M05/M14 A3063 RMK A01 T10451138  RH  048%=      5-min Rain = 0
KQU1 120424Z 01012G18KT M05/M14 A3064 RMK A01 T10451137  RH  049%=      5-min Rain = 0
KQU1 120425Z 00010G18KT M05/M14 A3063 RMK A01 T10451136  RH  049%=      5-min Rain = 0
KQU1 120426Z 36010G16KT M05/M14 A3063 RMK A01 T10451136  RH  049%=      5-min Rain = 0
KQU1 120427Z 01009G14KT M05/M14 A3063 RMK A01 T10451137  RH  049%=      5-min Rain = 0
KQU1 120428Z 01011G20KT M05/M14 A3064 RMK A01 T10451138  RH  048%=      5-min Rain = 0
KQU1 120429Z 01010G16KT M05/M14 A3064 RMK A01 T10461137  RH  049%=      5-min Rain = 0
KQU1 120430Z 01010KT M05/M14 A3064 RMK A01 T10461137  RH  049%=      5-min Rain = 0
KQU1 120431Z 01010G19KT M05/M14 A3064 RMK A01 T10461136  RH  049%=      5-min Rain = 0
KQU1 120432Z 01007G13KT M05/M14 A3064 RMK A01 T10461137  RH  049%=      5-min Rain = 0
KQU1 120433Z 01007G15KT M05/M14 A3064 RMK A01 T10471136  RH  050%=      5-min Rain = 0
KQU1 120434Z 36008G14KT M05/M14 A3064 RMK A01 T10471135  RH  050%=      5-min Rain = 0
KQU1 120435Z 01010G15KT M05/M14 A3064 RMK A01 T10471136  RH  050%=      5-min Rain = 0
KQU1 120436Z 02010G18KT M05/M14 A3064 RMK A01 T10471139  RH  049%=      5-min Rain = 0
KQU1 120437Z 01007G14KT M05/M14 A3064 RMK A01 T10471136  RH  050%=      5-min Rain = 0
KQU1 120438Z 35011G18KT M05/M14 A3064 RMK A01 T10481136  RH  050%=      5-min Rain = 0
KQU1 120439Z 00010G19KT M05/M14 A3064 RMK A01 T10481138  RH  049%=      5-min Rain = 0
KQU1 120440Z 01006KT M05/M14 A3063 RMK A01 T10481135  RH  051%=      5-min Rain = 0
KQU1 120441Z 01006G12KT M05/M13 A3064 RMK A01 T10481134  RH  051%=      5-min Rain = 0
KQU1 120442Z 00010G17KT M05/M14 A3064 RMK A01 T10481136  RH  050%=      5-min Rain = 0
KQU1 120443Z 00011G18KT M05/M14 A3064 RMK A01 T10481137  RH  050%=      5-min Rain = 0
KQU1 120444Z 01010KT M05/M14 A3064 RMK A01 T10491138  RH  050%=      5-min Rain = 0
KQU1 120445Z 00011KT M05/M14 A3064 RMK A01 T10491137  RH  050%=      5-min Rain = 0
KQU1 120446Z 02011G16KT M05/M14 A3064 RMK A01 T10491137  RH  050%=      5-min Rain = 0
KQU1 120447Z 00008KT M05/M14 A3064 RMK A01 T10491138  RH  050%=      5-min Rain = 0
KQU1 120448Z 01008G14KT M05/M14 A3064 RMK A01 T10491138  RH  050%=      5-min Rain = 0
KQU1 120449Z 01012KT M05/M14 A3064 RMK A01 T10491139  RH  050%=      5-min Rain = 0
KQU1 120450Z 01009G17KT M05/M14 A3064 RMK A01 T10491138  RH  050%=      5-min Rain = 0
KQU1 120451Z 01011G20KT M05/M14 A3064 RMK A01 T10491138  RH  050%=      5-min Rain = 0
KQU1 120452Z 01011G16KT M05/M14 A3064 RMK A01 T10491139  RH  049%=      5-min Rain = 0
KQU1 120453Z 01012G17KT M05/M14 A3064 RMK A01 T10501138  RH  050%=      5-min Rain = 0
KQU1 120454Z 01009KT M05/M14 A3064 RMK A01 T10501138  RH  050%=      5-min Rain = 0
KQU1 120455Z 01010G17KT M05/M14 A3064 RMK A01 T10501137  RH  050%=      5-min Rain = 0
KQU1 120456Z 01008G15KT M05/M14 A3064 RMK A01 T10501138  RH  050%=      5-min Rain = 0
KQU1 120457Z 00010G15KT M05/M14 A3064 RMK A01 T10501138  RH  050%=      5-min Rain = 0
KQU1 120458Z 36010KT M05/M14 A3064 RMK A01 T10501138  RH  050%=      5-min Rain = 0
KQU1 120459Z 00010G15KT M05/M14 A3064 RMK A01 T10501136  RH  051%=      5-min Rain = 0
KQU1 120500Z 36011KT M05/M14 A3064 RMK A01 T10501138  RH  050%=      5-min Rain = 0
KQU1 120501Z 00010KT M05/M14 A3064 RMK A01 T10511138  RH  050%=      5-min Rain = 0
KQU1 120502Z 01010G16KT M05/M14 A3064 RMK A01 T10511138  RH  051%=      5-min Rain = 0
KQU1 120503Z 36008G15KT M05/M14 A3064 RMK A01 T10511139  RH  050%=      5-min Rain = 0
KQU1 120504Z 00009KT M05/M14 A3064 RMK A01 T10511137  RH  051%=      5-min Rain = 0
KQU1 120505Z 02007G12KT M05/M14 A3064 RMK A01 T10511137  RH  051%=      5-min Rain = 0
KQU1 120506Z 36010G16KT M05/M14 A3064 RMK A01 T10521137  RH  051%=      5-min Rain = 0
KQU1 120507Z 00013G21KT M05/M14 A3064 RMK A01 T10521140  RH  050%=      5-min Rain = 0
KQU1 120508Z 01011G18KT M05/M14 A3064 RMK A01 T10521140  RH  050%=      5-min Rain = 0
KQU1 120509Z 00011G17KT M05/M14 A3064 RMK A01 T10521139  RH  050%=      5-min Rain = 0
KQU1 120510Z 01011G17KT M05/M14 A3064 RMK A01 T10521139  RH  050%=      5-min Rain = 0
KQU1 120511Z 01010G16KT M05/M14 A3064 RMK A01 T10521140  RH  050%=      5-min Rain = 0
KQU1 120512Z 01012KT M05/M14 A3064 RMK A01 T10521139  RH  051%=      5-min Rain = 0
KQU1 120513Z 01010G19KT M05/M14 A3064 RMK A01 T10531140  RH  050%=      5-min Rain = 0
KQU1 120514Z 00009KT M05/M14 A3064 RMK A01 T10531140  RH  050%=      5-min Rain = 0
KQU1 120515Z 01009G20KT M05/M14 A3064 RMK A01 T10531140  RH  050%=      5-min Rain = 0
KQU1 120516Z 36009G14KT M05/M14 A3064 RMK A01 T10531140  RH  051%=      5-min Rain = 0
KQU1 120517Z 00009G14KT M05/M14 A3064 RMK A01 T10531139  RH  051%=      5-min Rain = 0
KQU1 120518Z 01009G15KT M05/M14 A3065 RMK A01 T10531140  RH  050%=      5-min Rain = 0
KQU1 120519Z 01007G13KT M05/M14 A3065 RMK A01 T10531141  RH  050%=      5-min Rain = 0
KQU1 120520Z 00009G14KT M05/M14 A3064 RMK A01 T10541140  RH  051%=      5-min Rain = 0
KQU1 120521Z 01010G19KT M05/M14 A3064 RMK A01 T10541140  RH  051%=      5-min Rain = 0
KQU1 120522Z 36009G14KT M05/M14 A3064 RMK A01 T10541140  RH  051%=      5-min Rain = 0
KQU1 120523Z 00007G12KT M05/M14 A3064 RMK A01 T10541140  RH  051%=      5-min Rain = 0
KQU1 120524Z 00007KT M05/M14 A3064 RMK A01 T10541138  RH  052%=      5-min Rain = 0
KQU1 120525Z 00010G15KT M05/M14 A3065 RMK A01 T10541141  RH  050%=      5-min Rain = 0
KQU1 120526Z 01011G17KT M06/M14 A3064 RMK A01 T10551141  RH  051%=      5-min Rain = 0
KQU1 120527Z 01007G14KT M06/M14 A3064 RMK A01 T10551141  RH  051%=      5-min Rain = 0
KQU1 120528Z 01008G15KT M06/M14 A3064 RMK A01 T10551139  RH  051%=      5-min Rain = 0
KQU1 120529Z 01008G14KT M06/M14 A3064 RMK A01 T10551136  RH  053%=      5-min Rain = 0
KQU1 120530Z 35010G16KT M06/M14 A3064 RMK A01 T10551141  RH  051%=      5-min Rain = 0
KQU1 120531Z 01011G17KT M06/M14 A3065 RMK A01 T10551140  RH  051%=      5-min Rain = 0
KQU1 120532Z 01013KT M06/M14 A3065 RMK A01 T10551142  RH  050%=      5-min Rain = 0
KQU1 120533Z 01009G14KT M06/M14 A3065 RMK A01 T10551141  RH  051%=      5-min Rain = 0
KQU1 120534Z 00008G20KT M06/M14 A3065 RMK A01 T10551141  RH  051%=      5-min Rain = 0
KQU1 120535Z 00009G18KT M06/M14 A3065 RMK A01 T10551142  RH  051%=      5-min Rain = 0
KQU1 120536Z 01011G17KT M06/M14 A3065 RMK A01 T10561143  RH  050%=      5-min Rain = 0
KQU1 120537Z 01009G15KT M06/M14 A3065 RMK A01 T10561142  RH  051%=      5-min Rain = 0
KQU1 120538Z 01012G18KT M06/M14 A3065 RMK A01 T10561143  RH  050%=      5-min Rain = 0
KQU1 120539Z 36009G14KT M06/M14 A3065 RMK A01 T10561144  RH  050%=      5-min Rain = 0
KQU1 120540Z 00012G20KT M06/M14 A3065 RMK A01 T10561143  RH  050%=      5-min Rain = 0
KQU1 120541Z 36006G11KT M06/M14 A3065 RMK A01 T10561143  RH  050%=      5-min Rain = 0
KQU1 120542Z 01007G16KT M06/M14 A3065 RMK A01 T10561139  RH  052%=      5-min Rain = 0
KQU1 120543Z 01007G13KT M06/M14 A3065 RMK A01 T10561142  RH  051%=      5-min Rain = 0
KQU1 120544Z 01007G15KT M06/M14 A3065 RMK A01 T10561142  RH  051%=      5-min Rain = 0
KQU1 120545Z 01010G19KT M06/M14 A3065 RMK A01 T10561141  RH  051%=      5-min Rain = 0
KQU1 120546Z 00011G18KT M06/M14 A3065 RMK A01 T10571143  RH  050%=      5-min Rain = 0
KQU1 120547Z 01010G15KT M06/M14 A3065 RMK A01 T10571142  RH  051%=      5-min Rain = 0
KQU1 120548Z 00010G16KT M06/M14 A3065 RMK A01 T10571143  RH  051%=      5-min Rain = 0
KQU1 120549Z 01009G14KT M06/M14 A3065 RMK A01 T10571142  RH  051%=      5-min Rain = 0
KQU1 120550Z 01010G15KT M06/M14 A3065 RMK A01 T10571141  RH  052%=      5-min Rain = 0
KQU1 120551Z 00010KT M06/M14 A3065 RMK A01 T10571142  RH  051%=      5-min Rain = 0
KQU1 120552Z 01010G17KT M06/M14 A3065 RMK A01 T10571143  RH  051%=      5-min Rain = 0
KQU1 120553Z 01007KT M06/M14 A3065 RMK A01 T10581141  RH  052%=      5-min Rain = 0
KQU1 120554Z 01009KT M06/M14 A3065 RMK A01 T10571139  RH  053%=      5-min Rain = 0
KQU1 120555Z 01010G18KT M06/M14 A3065 RMK A01 T10571140  RH  052%=      5-min Rain = 0
KQU1 120556Z 02010G17KT M06/M14 A3065 RMK A01 T10581143  RH  051%=      5-min Rain = 0
KQU1 120557Z 01012KT M06/M14 A3065 RMK A01 T10581142  RH  052%=      5-min Rain = 0
KQU1 120558Z 01009KT M06/M14 A3065 RMK A01 T10581140  RH  052%=      5-min Rain = 0
KQU1 120559Z 00008G14KT M06/M14 A3065 RMK A01 T10581140  RH  052%=      5-min Rain = 0

Page generated in 0.0784 seconds.